<?xml version="1.0" encoding="utf-8"?>
<gpx xmlns:xsi="http://www.w3.org/2001/XMLSchema-instance" xmlns:xsd="http://www.w3.org/2001/XMLSchema" version="1.1" creator="Shapelink.com" xmlns="http://www.topografix.com/GPX/1/1" xmlns:gpxtpx="http://www.garmin.com/xmlschemas/TrackPointExtension/v1">
  <metadata>
    <name>Cross country skating 18.02 km, 2013-01-05</name>
    <desc></desc>
    <author><name>Ulf Andrae</name></author> 
    <time>2013-01-05T07:18:52Z</time>
  </metadata>
  <trk>
    <name>Cross country skating 18.02 km, 2013-01-05</name>
    <trkseg>
      <trkpt lat="58.6556518916" lon="16.0056774504">
        <ele>20.81</ele>
        <time>2013-01-05T07:18:52Z</time>
      </trkpt>
      <trkpt lat="58.6556410789" lon="16.0056102276">
        <ele>19.36</ele>
        <time>2013-01-05T07:18:58Z</time>
      </trkpt>
      <trkpt lat="58.6555806454" lon="16.0053894483">
        <ele>21.29</ele>
        <time>2013-01-05T07:19:02Z</time>
      </trkpt>
      <trkpt lat="58.6553850956" lon="16.0048905574">
        <ele>21.77</ele>
        <time>2013-01-05T07:19:10Z</time>
      </trkpt>
      <trkpt lat="58.6552226543" lon="16.0045342427">
        <ele>21.29</ele>
        <time>2013-01-05T07:19:18Z</time>
      </trkpt>
      <trkpt lat="58.6551726144" lon="16.0041924287">
        <ele>20.81</ele>
        <time>2013-01-05T07:19:24Z</time>
      </trkpt>
      <trkpt lat="58.6551671661" lon="16.0033103172">
        <ele>21.29</ele>
        <time>2013-01-05T07:19:35Z</time>
      </trkpt>
      <trkpt lat="58.6551895458" lon="16.0025046486">
        <ele>21.29</ele>
        <time>2013-01-05T07:19:44Z</time>
      </trkpt>
      <trkpt lat="58.6551564373" lon="16.001900984">
        <ele>21.77</ele>
        <time>2013-01-05T07:19:51Z</time>
      </trkpt>
      <trkpt lat="58.6551580299" lon="16.0012743529">
        <ele>21.29</ele>
        <time>2013-01-05T07:19:58Z</time>
      </trkpt>
      <trkpt lat="58.655178817" lon="16.000744449">
        <ele>21.77</ele>
        <time>2013-01-05T07:20:04Z</time>
      </trkpt>
      <trkpt lat="58.6551943235" lon="16.000390565">
        <ele>21.29</ele>
        <time>2013-01-05T07:20:08Z</time>
      </trkpt>
      <trkpt lat="58.6552622169" lon="15.9995619301">
        <ele>21.77</ele>
        <time>2013-01-05T07:20:17Z</time>
      </trkpt>
      <trkpt lat="58.6552753765" lon="15.9993823059">
        <ele>22.25</ele>
        <time>2013-01-05T07:20:19Z</time>
      </trkpt>
      <trkpt lat="58.6553897895" lon="15.9983982705">
        <ele>21.77</ele>
        <time>2013-01-05T07:20:30Z</time>
      </trkpt>
      <trkpt lat="58.655500263" lon="15.9977343399">
        <ele>21.29</ele>
        <time>2013-01-05T07:20:38Z</time>
      </trkpt>
      <trkpt lat="58.6555832438" lon="15.9971464332">
        <ele>21.77</ele>
        <time>2013-01-05T07:20:45Z</time>
      </trkpt>
      <trkpt lat="58.6556000076" lon="15.9970661346">
        <ele>22.73</ele>
        <time>2013-01-05T07:20:46Z</time>
      </trkpt>
      <trkpt lat="58.6556753609" lon="15.9965169523">
        <ele>21.29</ele>
        <time>2013-01-05T07:20:53Z</time>
      </trkpt>
      <trkpt lat="58.6557953898" lon="15.9959554486">
        <ele>21.29</ele>
        <time>2013-01-05T07:21:00Z</time>
      </trkpt>
      <trkpt lat="58.6558616068" lon="15.9956337512">
        <ele>21.77</ele>
        <time>2013-01-05T07:21:04Z</time>
      </trkpt>
      <trkpt lat="58.6559868325" lon="15.9948219638">
        <ele>21.29</ele>
        <time>2013-01-05T07:21:14Z</time>
      </trkpt>
      <trkpt lat="58.6560759321" lon="15.994157698">
        <ele>21.29</ele>
        <time>2013-01-05T07:21:22Z</time>
      </trkpt>
      <trkpt lat="58.6561650317" lon="15.9935205057">
        <ele>22.25</ele>
        <time>2013-01-05T07:21:30Z</time>
      </trkpt>
      <trkpt lat="58.6562254652" lon="15.9929300006">
        <ele>22.25</ele>
        <time>2013-01-05T07:21:37Z</time>
      </trkpt>
      <trkpt lat="58.6562756728" lon="15.9923626296">
        <ele>21.29</ele>
        <time>2013-01-05T07:21:44Z</time>
      </trkpt>
      <trkpt lat="58.6563568935" lon="15.9918555245">
        <ele>22.25</ele>
        <time>2013-01-05T07:21:50Z</time>
      </trkpt>
      <trkpt lat="58.6564513575" lon="15.9910353553">
        <ele>21.77</ele>
        <time>2013-01-05T07:22:00Z</time>
      </trkpt>
      <trkpt lat="58.6565386131" lon="15.990446778">
        <ele>22.25</ele>
        <time>2013-01-05T07:22:08Z</time>
      </trkpt>
      <trkpt lat="58.6566015612" lon="15.9899059776">
        <ele>21.77</ele>
        <time>2013-01-05T07:22:15Z</time>
      </trkpt>
      <trkpt lat="58.656672975" lon="15.9893557057">
        <ele>21.77</ele>
        <time>2013-01-05T07:22:22Z</time>
      </trkpt>
      <trkpt lat="58.6567218415" lon="15.9887209442">
        <ele>22.25</ele>
        <time>2013-01-05T07:22:30Z</time>
      </trkpt>
      <trkpt lat="58.6567075085" lon="15.9883255698">
        <ele>22.25</ele>
        <time>2013-01-05T07:22:35Z</time>
      </trkpt>
      <trkpt lat="58.6567087658" lon="15.9881571773">
        <ele>22.25</ele>
        <time>2013-01-05T07:22:37Z</time>
      </trkpt>
      <trkpt lat="58.6567405332" lon="15.9874422848">
        <ele>22.25</ele>
        <time>2013-01-05T07:22:46Z</time>
      </trkpt>
      <trkpt lat="58.6567852926" lon="15.9868153185">
        <ele>22.25</ele>
        <time>2013-01-05T07:22:54Z</time>
      </trkpt>
      <trkpt lat="58.6568201613" lon="15.9862763621">
        <ele>22.73</ele>
        <time>2013-01-05T07:23:01Z</time>
      </trkpt>
      <trkpt lat="58.6568399426" lon="15.9857338015">
        <ele>22.73</ele>
        <time>2013-01-05T07:23:08Z</time>
      </trkpt>
      <trkpt lat="58.6568387691" lon="15.9855762217">
        <ele>22.25</ele>
        <time>2013-01-05T07:23:10Z</time>
      </trkpt>
      <trkpt lat="58.656883277" lon="15.9847370256">
        <ele>22.25</ele>
        <time>2013-01-05T07:23:21Z</time>
      </trkpt>
      <trkpt lat="58.6569554452" lon="15.9842109773">
        <ele>22.25</ele>
        <time>2013-01-05T07:23:28Z</time>
      </trkpt>
      <trkpt lat="58.6570001207" lon="15.9836870246">
        <ele>22.25</ele>
        <time>2013-01-05T07:23:35Z</time>
      </trkpt>
      <trkpt lat="58.657046305" lon="15.9831872117">
        <ele>23.21</ele>
        <time>2013-01-05T07:23:42Z</time>
      </trkpt>
      <trkpt lat="58.6570997816" lon="15.9826713894">
        <ele>22.73</ele>
        <time>2013-01-05T07:23:49Z</time>
      </trkpt>
      <trkpt lat="58.6571041401" lon="15.9821545612">
        <ele>23.21</ele>
        <time>2013-01-05T07:23:56Z</time>
      </trkpt>
      <trkpt lat="58.6571634002" lon="15.9816478752">
        <ele>22.73</ele>
        <time>2013-01-05T07:24:03Z</time>
      </trkpt>
      <trkpt lat="58.6571575329" lon="15.9811765607">
        <ele>22.73</ele>
        <time>2013-01-05T07:24:10Z</time>
      </trkpt>
      <trkpt lat="58.6571164615" lon="15.9806901589">
        <ele>22.25</ele>
        <time>2013-01-05T07:24:17Z</time>
      </trkpt>
      <trkpt lat="58.6571250949" lon="15.980191268">
        <ele>21.77</ele>
        <time>2013-01-05T07:24:24Z</time>
      </trkpt>
      <trkpt lat="58.657182008" lon="15.9795911238">
        <ele>22.25</ele>
        <time>2013-01-05T07:24:32Z</time>
      </trkpt>
      <trkpt lat="58.6572039686" lon="15.9793643095">
        <ele>21.29</ele>
        <time>2013-01-05T07:24:35Z</time>
      </trkpt>
      <trkpt lat="58.657221403" lon="15.9785893187">
        <ele>22.73</ele>
        <time>2013-01-05T07:24:45Z</time>
      </trkpt>
      <trkpt lat="58.6572507396" lon="15.978056984">
        <ele>23.21</ele>
        <time>2013-01-05T07:24:52Z</time>
      </trkpt>
      <trkpt lat="58.6572815012" lon="15.9775304329">
        <ele>22.73</ele>
        <time>2013-01-05T07:24:59Z</time>
      </trkpt>
      <trkpt lat="58.6573391687" lon="15.9769166261">
        <ele>23.21</ele>
        <time>2013-01-05T07:25:07Z</time>
      </trkpt>
      <trkpt lat="58.6573444493" lon="15.9767754748">
        <ele>22.73</ele>
        <time>2013-01-05T07:25:09Z</time>
      </trkpt>
      <trkpt lat="58.6573412642" lon="15.9766250197">
        <ele>22.25</ele>
        <time>2013-01-05T07:25:11Z</time>
      </trkpt>
      <trkpt lat="58.6573286075" lon="15.9762990475">
        <ele>22.73</ele>
        <time>2013-01-05T07:25:15Z</time>
      </trkpt>
      <trkpt lat="58.6573172081" lon="15.975640649">
        <ele>21.77</ele>
        <time>2013-01-05T07:25:23Z</time>
      </trkpt>
      <trkpt lat="58.6573470477" lon="15.9750519879">
        <ele>22.73</ele>
        <time>2013-01-05T07:25:30Z</time>
      </trkpt>
      <trkpt lat="58.6574297771" lon="15.9744939208">
        <ele>23.21</ele>
        <time>2013-01-05T07:25:37Z</time>
      </trkpt>
      <trkpt lat="58.657475207" lon="15.973952366">
        <ele>22.25</ele>
        <time>2013-01-05T07:25:44Z</time>
      </trkpt>
      <trkpt lat="58.657488199" lon="15.9737930261">
        <ele>23.21</ele>
        <time>2013-01-05T07:25:46Z</time>
      </trkpt>
      <trkpt lat="58.6575439386" lon="15.9732683189">
        <ele>21.29</ele>
        <time>2013-01-05T07:25:53Z</time>
      </trkpt>
      <trkpt lat="58.6576504726" lon="15.9725639038">
        <ele>22.25</ele>
        <time>2013-01-05T07:26:02Z</time>
      </trkpt>
      <trkpt lat="58.6577451881" lon="15.9719114564">
        <ele>21.29</ele>
        <time>2013-01-05T07:26:10Z</time>
      </trkpt>
      <trkpt lat="58.6578196194" lon="15.9712550696">
        <ele>22.25</ele>
        <time>2013-01-05T07:26:18Z</time>
      </trkpt>
      <trkpt lat="58.6578826513" lon="15.9708068892">
        <ele>22.25</ele>
        <time>2013-01-05T07:26:24Z</time>
      </trkpt>
      <trkpt lat="58.6579521373" lon="15.9704543464">
        <ele>21.77</ele>
        <time>2013-01-05T07:26:29Z</time>
      </trkpt>
      <trkpt lat="58.6580517981" lon="15.9697972052">
        <ele>21.77</ele>
        <time>2013-01-05T07:26:38Z</time>
      </trkpt>
      <trkpt lat="58.658112986" lon="15.9692770243">
        <ele>22.25</ele>
        <time>2013-01-05T07:26:45Z</time>
      </trkpt>
      <trkpt lat="58.6581512075" lon="15.968972845">
        <ele>21.77</ele>
        <time>2013-01-05T07:26:49Z</time>
      </trkpt>
      <trkpt lat="58.6581652891" lon="15.9688124154">
        <ele>22.25</ele>
        <time>2013-01-05T07:26:51Z</time>
      </trkpt>
      <trkpt lat="58.6582030915" lon="15.9681245126">
        <ele>22.25</ele>
        <time>2013-01-05T07:27:00Z</time>
      </trkpt>
      <trkpt lat="58.6582391337" lon="15.9675198421">
        <ele>22.73</ele>
        <time>2013-01-05T07:27:08Z</time>
      </trkpt>
      <trkpt lat="58.6582428217" lon="15.9674387053">
        <ele>22.25</ele>
        <time>2013-01-05T07:27:09Z</time>
      </trkpt>
      <trkpt lat="58.6582610104" lon="15.9671911877">
        <ele>21.77</ele>
        <time>2013-01-05T07:27:12Z</time>
      </trkpt>
      <trkpt lat="58.6582893413" lon="15.9664252494">
        <ele>21.29</ele>
        <time>2013-01-05T07:27:21Z</time>
      </trkpt>
      <trkpt lat="58.6583342683" lon="15.966085447">
        <ele>22.25</ele>
        <time>2013-01-05T07:27:25Z</time>
      </trkpt>
      <trkpt lat="58.6583659519" lon="15.9658291284">
        <ele>21.77</ele>
        <time>2013-01-05T07:27:28Z</time>
      </trkpt>
      <trkpt lat="58.6584822927" lon="15.9650732484">
        <ele>22.25</ele>
        <time>2013-01-05T07:27:37Z</time>
      </trkpt>
      <trkpt lat="58.6585440673" lon="15.9644771274">
        <ele>22.25</ele>
        <time>2013-01-05T07:27:44Z</time>
      </trkpt>
      <trkpt lat="58.6585403793" lon="15.964313345">
        <ele>22.25</ele>
        <time>2013-01-05T07:27:46Z</time>
      </trkpt>
      <trkpt lat="58.6584678758" lon="15.9634526912">
        <ele>21.77</ele>
        <time>2013-01-05T07:28:03Z</time>
      </trkpt>
      <trkpt lat="58.6584470887" lon="15.9634396154">
        <ele>21.29</ele>
        <time>2013-01-05T07:28:14Z</time>
      </trkpt>
      <trkpt lat="58.6584418919" lon="15.9634768311">
        <ele>22.25</ele>
        <time>2013-01-05T07:28:38Z</time>
      </trkpt>
      <trkpt lat="58.6584757548" lon="15.9635169804">
        <ele>21.77</ele>
        <time>2013-01-05T07:29:07Z</time>
      </trkpt>
      <trkpt lat="58.6584789399" lon="15.9635123704">
        <ele>21.29</ele>
        <time>2013-01-05T07:29:32Z</time>
      </trkpt>
      <trkpt lat="58.658487238" lon="15.9635133762">
        <ele>21.77</ele>
        <time>2013-01-05T07:29:57Z</time>
      </trkpt>
      <trkpt lat="58.6584915128" lon="15.9635317326">
        <ele>21.29</ele>
        <time>2013-01-05T07:30:33Z</time>
      </trkpt>
      <trkpt lat="58.6584938597" lon="15.963533828">
        <ele>21.29</ele>
        <time>2013-01-05T07:31:08Z</time>
      </trkpt>
      <trkpt lat="58.6585083604" lon="15.9634931758">
        <ele>21.77</ele>
        <time>2013-01-05T07:31:37Z</time>
      </trkpt>
      <trkpt lat="58.6584812868" lon="15.9634809382">
        <ele>21.77</ele>
        <time>2013-01-05T07:32:05Z</time>
      </trkpt>
      <trkpt lat="58.6584613379" lon="15.9634308983">
        <ele>18.4</ele>
        <time>2013-01-05T07:32:19Z</time>
      </trkpt>
      <trkpt lat="58.6584604997" lon="15.9634358436">
        <ele>25.13</ele>
        <time>2013-01-05T07:32:21Z</time>
      </trkpt>
      <trkpt lat="58.6584584881" lon="15.9634369332">
        <ele>22.25</ele>
        <time>2013-01-05T07:32:22Z</time>
      </trkpt>
      <trkpt lat="58.6584545486" lon="15.9634281322">
        <ele>22.25</ele>
        <time>2013-01-05T07:32:25Z</time>
      </trkpt>
      <trkpt lat="58.6585146468" lon="15.9632936865">
        <ele>22.73</ele>
        <time>2013-01-05T07:32:31Z</time>
      </trkpt>
      <trkpt lat="58.6585862283" lon="15.962715419">
        <ele>22.73</ele>
        <time>2013-01-05T07:32:44Z</time>
      </trkpt>
      <trkpt lat="58.6585873179" lon="15.9625938814">
        <ele>21.77</ele>
        <time>2013-01-05T07:32:54Z</time>
      </trkpt>
      <trkpt lat="58.6587564647" lon="15.962324487">
        <ele>22.73</ele>
        <time>2013-01-05T07:33:03Z</time>
      </trkpt>
      <trkpt lat="58.6587869748" lon="15.9622889478">
        <ele>22.73</ele>
        <time>2013-01-05T07:33:04Z</time>
      </trkpt>
      <trkpt lat="58.6588573828" lon="15.9622283466">
        <ele>22.25</ele>
        <time>2013-01-05T07:33:06Z</time>
      </trkpt>
      <trkpt lat="58.6591696087" lon="15.9619542584">
        <ele>23.21</ele>
        <time>2013-01-05T07:33:14Z</time>
      </trkpt>
      <trkpt lat="58.6592556909" lon="15.9618817549">
        <ele>22.73</ele>
        <time>2013-01-05T07:33:16Z</time>
      </trkpt>
      <trkpt lat="58.6594245862" lon="15.961781675">
        <ele>23.21</ele>
        <time>2013-01-05T07:33:20Z</time>
      </trkpt>
      <trkpt lat="58.6598352157" lon="15.9614332393">
        <ele>23.69</ele>
        <time>2013-01-05T07:33:30Z</time>
      </trkpt>
      <trkpt lat="58.6599051207" lon="15.9613348357">
        <ele>23.69</ele>
        <time>2013-01-05T07:33:32Z</time>
      </trkpt>
      <trkpt lat="58.6600904446" lon="15.9609940276">
        <ele>22.73</ele>
        <time>2013-01-05T07:33:38Z</time>
      </trkpt>
      <trkpt lat="58.6602288298" lon="15.9607973043">
        <ele>23.69</ele>
        <time>2013-01-05T07:33:42Z</time>
      </trkpt>
      <trkpt lat="58.6604486872" lon="15.9605372138">
        <ele>22.73</ele>
        <time>2013-01-05T07:33:48Z</time>
      </trkpt>
      <trkpt lat="58.6608019006" lon="15.9600828309">
        <ele>23.69</ele>
        <time>2013-01-05T07:33:58Z</time>
      </trkpt>
      <trkpt lat="58.6609053332" lon="15.9599560965">
        <ele>23.69</ele>
        <time>2013-01-05T07:34:01Z</time>
      </trkpt>
      <trkpt lat="58.6610908248" lon="15.9597755503">
        <ele>23.69</ele>
        <time>2013-01-05T07:34:06Z</time>
      </trkpt>
      <trkpt lat="58.6613564473" lon="15.9594855364">
        <ele>23.21</ele>
        <time>2013-01-05T07:34:13Z</time>
      </trkpt>
      <trkpt lat="58.6616931483" lon="15.959132826">
        <ele>23.69</ele>
        <time>2013-01-05T07:34:22Z</time>
      </trkpt>
      <trkpt lat="58.6618933082" lon="15.9590029065">
        <ele>23.21</ele>
        <time>2013-01-05T07:34:27Z</time>
      </trkpt>
      <trkpt lat="58.661969332" lon="15.9589307383">
        <ele>23.69</ele>
        <time>2013-01-05T07:34:29Z</time>
      </trkpt>
      <trkpt lat="58.6621935479" lon="15.9587135632">
        <ele>22.25</ele>
        <time>2013-01-05T07:34:35Z</time>
      </trkpt>
      <trkpt lat="58.6624596734" lon="15.9584484436">
        <ele>23.21</ele>
        <time>2013-01-05T07:34:42Z</time>
      </trkpt>
      <trkpt lat="58.6625385471" lon="15.9583818074">
        <ele>22.73</ele>
        <time>2013-01-05T07:34:44Z</time>
      </trkpt>
      <trkpt lat="58.6627205182" lon="15.9582167678">
        <ele>22.73</ele>
        <time>2013-01-05T07:34:49Z</time>
      </trkpt>
      <trkpt lat="58.6628791876" lon="15.9581073839">
        <ele>23.21</ele>
        <time>2013-01-05T07:34:53Z</time>
      </trkpt>
      <trkpt lat="58.662994355" lon="15.9579960722">
        <ele>23.21</ele>
        <time>2013-01-05T07:34:56Z</time>
      </trkpt>
      <trkpt lat="58.6632774957" lon="15.9577072319">
        <ele>22.73</ele>
        <time>2013-01-05T07:35:04Z</time>
      </trkpt>
      <trkpt lat="58.6636022106" lon="15.9574294556">
        <ele>23.69</ele>
        <time>2013-01-05T07:35:13Z</time>
      </trkpt>
      <trkpt lat="58.6638669949" lon="15.9572478198">
        <ele>23.69</ele>
        <time>2013-01-05T07:35:20Z</time>
      </trkpt>
      <trkpt lat="58.6639709305" lon="15.9571290482">
        <ele>23.69</ele>
        <time>2013-01-05T07:35:23Z</time>
      </trkpt>
      <trkpt lat="58.6642955616" lon="15.9568363521">
        <ele>23.21</ele>
        <time>2013-01-05T07:35:32Z</time>
      </trkpt>
      <trkpt lat="58.6645790376" lon="15.9567955323">
        <ele>22.73</ele>
        <time>2013-01-05T07:35:39Z</time>
      </trkpt>
      <trkpt lat="58.664660342" lon="15.95678363">
        <ele>23.21</ele>
        <time>2013-01-05T07:35:41Z</time>
      </trkpt>
      <trkpt lat="58.6648744158" lon="15.9568009805">
        <ele>22.73</ele>
        <time>2013-01-05T07:35:46Z</time>
      </trkpt>
      <trkpt lat="58.6649610847" lon="15.9568085242">
        <ele>23.21</ele>
        <time>2013-01-05T07:35:48Z</time>
      </trkpt>
      <trkpt lat="58.6651796009" lon="15.9568585642">
        <ele>23.69</ele>
        <time>2013-01-05T07:35:53Z</time>
      </trkpt>
      <trkpt lat="58.665268952" lon="15.9568479192">
        <ele>23.69</ele>
        <time>2013-01-05T07:35:55Z</time>
      </trkpt>
      <trkpt lat="58.6655240133" lon="15.9567983821">
        <ele>23.21</ele>
        <time>2013-01-05T07:36:01Z</time>
      </trkpt>
      <trkpt lat="58.6656059884" lon="15.9567420557">
        <ele>23.69</ele>
        <time>2013-01-05T07:36:03Z</time>
      </trkpt>
      <trkpt lat="58.6659446172" lon="15.9564556461">
        <ele>23.21</ele>
        <time>2013-01-05T07:36:12Z</time>
      </trkpt>
      <trkpt lat="58.6661877763" lon="15.9562730044">
        <ele>23.69</ele>
        <time>2013-01-05T07:36:18Z</time>
      </trkpt>
      <trkpt lat="58.666306464" lon="15.9561967291">
        <ele>23.69</ele>
        <time>2013-01-05T07:36:21Z</time>
      </trkpt>
      <trkpt lat="58.6666286644" lon="15.9560063761">
        <ele>22.73</ele>
        <time>2013-01-05T07:36:29Z</time>
      </trkpt>
      <trkpt lat="58.6667584162" lon="15.9559491277">
        <ele>24.17</ele>
        <time>2013-01-05T07:36:32Z</time>
      </trkpt>
      <trkpt lat="58.6671268009" lon="15.9557097405">
        <ele>23.21</ele>
        <time>2013-01-05T07:36:41Z</time>
      </trkpt>
      <trkpt lat="58.6672460753" lon="15.9555976745">
        <ele>23.21</ele>
        <time>2013-01-05T07:36:44Z</time>
      </trkpt>
      <trkpt lat="58.667412959" lon="15.9554746281">
        <ele>22.73</ele>
        <time>2013-01-05T07:36:48Z</time>
      </trkpt>
      <trkpt lat="58.6675386876" lon="15.9553527553">
        <ele>22.73</ele>
        <time>2013-01-05T07:36:51Z</time>
      </trkpt>
      <trkpt lat="58.6677390151" lon="15.9551479854">
        <ele>23.21</ele>
        <time>2013-01-05T07:36:56Z</time>
      </trkpt>
      <trkpt lat="58.6678162962" lon="15.9550577961">
        <ele>21.77</ele>
        <time>2013-01-05T07:36:58Z</time>
      </trkpt>
      <trkpt lat="58.6681118421" lon="15.9546401259">
        <ele>22.25</ele>
        <time>2013-01-05T07:37:06Z</time>
      </trkpt>
      <trkpt lat="58.6684420053" lon="15.9539222158">
        <ele>21.77</ele>
        <time>2013-01-05T07:37:17Z</time>
      </trkpt>
      <trkpt lat="58.668506043" lon="15.9537913743">
        <ele>22.73</ele>
        <time>2013-01-05T07:37:19Z</time>
      </trkpt>
      <trkpt lat="58.6686124094" lon="15.9534912184">
        <ele>22.73</ele>
        <time>2013-01-05T07:37:23Z</time>
      </trkpt>
      <trkpt lat="58.6686970666" lon="15.9531452972">
        <ele>22.25</ele>
        <time>2013-01-05T07:37:27Z</time>
      </trkpt>
      <trkpt lat="58.6687313486" lon="15.9529646672">
        <ele>23.21</ele>
        <time>2013-01-05T07:37:29Z</time>
      </trkpt>
      <trkpt lat="58.6688074563" lon="15.9525051713">
        <ele>23.69</ele>
        <time>2013-01-05T07:37:34Z</time>
      </trkpt>
      <trkpt lat="58.668850204" lon="15.9523294866">
        <ele>23.21</ele>
        <time>2013-01-05T07:37:36Z</time>
      </trkpt>
      <trkpt lat="58.6690012459" lon="15.9518458508">
        <ele>23.21</ele>
        <time>2013-01-05T07:37:42Z</time>
      </trkpt>
      <trkpt lat="58.6690996494" lon="15.9516596049">
        <ele>22.25</ele>
        <time>2013-01-05T07:37:45Z</time>
      </trkpt>
      <trkpt lat="58.6694389489" lon="15.9512491431">
        <ele>23.21</ele>
        <time>2013-01-05T07:37:54Z</time>
      </trkpt>
      <trkpt lat="58.6695113685" lon="15.9511564393">
        <ele>23.21</ele>
        <time>2013-01-05T07:37:56Z</time>
      </trkpt>
      <trkpt lat="58.6696544476" lon="15.9508432075">
        <ele>24.17</ele>
        <time>2013-01-05T07:38:01Z</time>
      </trkpt>
      <trkpt lat="58.669695016" lon="15.9506862145">
        <ele>23.21</ele>
        <time>2013-01-05T07:38:03Z</time>
      </trkpt>
      <trkpt lat="58.6698976066" lon="15.9502321668">
        <ele>23.21</ele>
        <time>2013-01-05T07:38:10Z</time>
      </trkpt>
      <trkpt lat="58.6700276099" lon="15.9500320908">
        <ele>22.25</ele>
        <time>2013-01-05T07:38:14Z</time>
      </trkpt>
      <trkpt lat="58.6703156121" lon="15.9496629518">
        <ele>23.21</ele>
        <time>2013-01-05T07:38:22Z</time>
      </trkpt>
      <trkpt lat="58.6703871936" lon="15.9495571721">
        <ele>22.25</ele>
        <time>2013-01-05T07:38:24Z</time>
      </trkpt>
      <trkpt lat="58.6704917997" lon="15.9493841697">
        <ele>22.73</ele>
        <time>2013-01-05T07:38:27Z</time>
      </trkpt>
      <trkpt lat="58.6707443465" lon="15.9489776473">
        <ele>23.21</ele>
        <time>2013-01-05T07:38:34Z</time>
      </trkpt>
      <trkpt lat="58.6708769482" lon="15.948732812">
        <ele>22.25</ele>
        <time>2013-01-05T07:38:38Z</time>
      </trkpt>
      <trkpt lat="58.671221612" lon="15.9482368547">
        <ele>23.21</ele>
        <time>2013-01-05T07:38:48Z</time>
      </trkpt>
      <trkpt lat="58.6714544613" lon="15.9477720782">
        <ele>23.21</ele>
        <time>2013-01-05T07:38:56Z</time>
      </trkpt>
      <trkpt lat="58.671536101" lon="15.947594801">
        <ele>23.21</ele>
        <time>2013-01-05T07:38:59Z</time>
      </trkpt>
      <trkpt lat="58.6718349159" lon="15.9472480416">
        <ele>22.25</ele>
        <time>2013-01-05T07:39:07Z</time>
      </trkpt>
      <trkpt lat="58.6719152145" lon="15.9471869376">
        <ele>23.69</ele>
        <time>2013-01-05T07:39:09Z</time>
      </trkpt>
      <trkpt lat="58.6721742153" lon="15.9470361471">
        <ele>23.21</ele>
        <time>2013-01-05T07:39:15Z</time>
      </trkpt>
      <trkpt lat="58.6724419333" lon="15.9468556009">
        <ele>23.21</ele>
        <time>2013-01-05T07:39:21Z</time>
      </trkpt>
      <trkpt lat="58.6725317873" lon="15.9467750508">
        <ele>22.73</ele>
        <time>2013-01-05T07:39:23Z</time>
      </trkpt>
      <trkpt lat="58.6729138345" lon="15.9464103542">
        <ele>22.25</ele>
        <time>2013-01-05T07:39:32Z</time>
      </trkpt>
      <trkpt lat="58.6729969829" lon="15.9463340789">
        <ele>23.21</ele>
        <time>2013-01-05T07:39:34Z</time>
      </trkpt>
      <trkpt lat="58.6734006554" lon="15.9458755888">
        <ele>23.69</ele>
        <time>2013-01-05T07:39:44Z</time>
      </trkpt>
      <trkpt lat="58.6736765038" lon="15.9455748461">
        <ele>23.69</ele>
        <time>2013-01-05T07:39:51Z</time>
      </trkpt>
      <trkpt lat="58.6737582274" lon="15.9455006663">
        <ele>23.69</ele>
        <time>2013-01-05T07:39:53Z</time>
      </trkpt>
      <trkpt lat="58.6741870455" lon="15.9452663083">
        <ele>23.69</ele>
        <time>2013-01-05T07:40:03Z</time>
      </trkpt>
      <trkpt lat="58.6742318049" lon="15.9452415816">
        <ele>23.21</ele>
        <time>2013-01-05T07:40:04Z</time>
      </trkpt>
      <trkpt lat="58.6743159592" lon="15.9451944754">
        <ele>23.21</ele>
        <time>2013-01-05T07:40:06Z</time>
      </trkpt>
      <trkpt lat="58.6746446975" lon="15.9449608717">
        <ele>23.21</ele>
        <time>2013-01-05T07:40:14Z</time>
      </trkpt>
      <trkpt lat="58.6747279298" lon="15.944892643">
        <ele>22.25</ele>
        <time>2013-01-05T07:40:16Z</time>
      </trkpt>
      <trkpt lat="58.6749342084" lon="15.9447325487">
        <ele>22.73</ele>
        <time>2013-01-05T07:40:21Z</time>
      </trkpt>
      <trkpt lat="58.6750207096" lon="15.9446657449">
        <ele>22.73</ele>
        <time>2013-01-05T07:40:23Z</time>
      </trkpt>
      <trkpt lat="58.6752323527" lon="15.9445320535">
        <ele>23.21</ele>
        <time>2013-01-05T07:40:28Z</time>
      </trkpt>
      <trkpt lat="58.6753131542" lon="15.9444712847">
        <ele>23.21</ele>
        <time>2013-01-05T07:40:30Z</time>
      </trkpt>
      <trkpt lat="58.675673157" lon="15.9441448096">
        <ele>23.21</ele>
        <time>2013-01-05T07:40:39Z</time>
      </trkpt>
      <trkpt lat="58.6758254562" lon="15.9439841285">
        <ele>22.25</ele>
        <time>2013-01-05T07:40:43Z</time>
      </trkpt>
      <trkpt lat="58.6759021506" lon="15.9439232759">
        <ele>22.73</ele>
        <time>2013-01-05T07:40:45Z</time>
      </trkpt>
      <trkpt lat="58.67617012" lon="15.9437223617">
        <ele>23.69</ele>
        <time>2013-01-05T07:40:52Z</time>
      </trkpt>
      <trkpt lat="58.6762526818" lon="15.9436703939">
        <ele>23.69</ele>
        <time>2013-01-05T07:40:54Z</time>
      </trkpt>
      <trkpt lat="58.676618468" lon="15.943479035">
        <ele>23.21</ele>
        <time>2013-01-05T07:41:03Z</time>
      </trkpt>
      <trkpt lat="58.6766990181" lon="15.9434405621">
        <ele>22.25</ele>
        <time>2013-01-05T07:41:05Z</time>
      </trkpt>
      <trkpt lat="58.6767819989" lon="15.9434015863">
        <ele>21.77</ele>
        <time>2013-01-05T07:41:07Z</time>
      </trkpt>
      <trkpt lat="58.6771102343" lon="15.9432784561">
        <ele>23.21</ele>
        <time>2013-01-05T07:41:15Z</time>
      </trkpt>
      <trkpt lat="58.677189108" lon="15.9432231355">
        <ele>22.25</ele>
        <time>2013-01-05T07:41:17Z</time>
      </trkpt>
      <trkpt lat="58.6773036886" lon="15.9431357123">
        <ele>22.73</ele>
        <time>2013-01-05T07:41:20Z</time>
      </trkpt>
      <trkpt lat="58.6777020805" lon="15.9428432677">
        <ele>23.21</ele>
        <time>2013-01-05T07:41:30Z</time>
      </trkpt>
      <trkpt lat="58.6777411401" lon="15.94280513">
        <ele>21.77</ele>
        <time>2013-01-05T07:41:31Z</time>
      </trkpt>
      <trkpt lat="58.6779058445" lon="15.9426548425">
        <ele>22.73</ele>
        <time>2013-01-05T07:41:35Z</time>
      </trkpt>
      <trkpt lat="58.6782769952" lon="15.9422790818">
        <ele>23.69</ele>
        <time>2013-01-05T07:41:44Z</time>
      </trkpt>
      <trkpt lat="58.6783200782" lon="15.9422341548">
        <ele>21.77</ele>
        <time>2013-01-05T07:41:45Z</time>
      </trkpt>
      <trkpt lat="58.6783941742" lon="15.9421408642">
        <ele>23.21</ele>
        <time>2013-01-05T07:41:47Z</time>
      </trkpt>
      <trkpt lat="58.6786325555" lon="15.9418734815">
        <ele>23.69</ele>
        <time>2013-01-05T07:41:53Z</time>
      </trkpt>
      <trkpt lat="58.6789451167" lon="15.94149068">
        <ele>22.25</ele>
        <time>2013-01-05T07:42:01Z</time>
      </trkpt>
      <trkpt lat="58.6793226376" lon="15.9409342054">
        <ele>21.29</ele>
        <time>2013-01-05T07:42:11Z</time>
      </trkpt>
      <trkpt lat="58.6793901119" lon="15.940790372">
        <ele>22.25</ele>
        <time>2013-01-05T07:42:13Z</time>
      </trkpt>
      <trkpt lat="58.6795349512" lon="15.9404353146">
        <ele>22.73</ele>
        <time>2013-01-05T07:42:18Z</time>
      </trkpt>
      <trkpt lat="58.6796086282" lon="15.9401996993">
        <ele>23.21</ele>
        <time>2013-01-05T07:42:21Z</time>
      </trkpt>
      <trkpt lat="58.6797941197" lon="15.9394447412">
        <ele>23.21</ele>
        <time>2013-01-05T07:42:30Z</time>
      </trkpt>
      <trkpt lat="58.6799433175" lon="15.9386948124">
        <ele>22.25</ele>
        <time>2013-01-05T07:42:39Z</time>
      </trkpt>
      <trkpt lat="58.6801154818" lon="15.9383537527">
        <ele>22.73</ele>
        <time>2013-01-05T07:42:44Z</time>
      </trkpt>
      <trkpt lat="58.6802779231" lon="15.9381192271">
        <ele>22.73</ele>
        <time>2013-01-05T07:42:48Z</time>
      </trkpt>
      <trkpt lat="58.6806242634" lon="15.9376744833">
        <ele>21.77</ele>
        <time>2013-01-05T07:42:56Z</time>
      </trkpt>
      <trkpt lat="58.680668436" lon="15.9376215097">
        <ele>23.69</ele>
        <time>2013-01-05T07:42:57Z</time>
      </trkpt>
      <trkpt lat="58.6808495689" lon="15.9374205116">
        <ele>22.73</ele>
        <time>2013-01-05T07:43:01Z</time>
      </trkpt>
      <trkpt lat="58.6811995134" lon="15.9370245505">
        <ele>23.21</ele>
        <time>2013-01-05T07:43:09Z</time>
      </trkpt>
      <trkpt lat="58.6814416666" lon="15.9367250651">
        <ele>23.69</ele>
        <time>2013-01-05T07:43:15Z</time>
      </trkpt>
      <trkpt lat="58.6816156749" lon="15.9364373144">
        <ele>23.21</ele>
        <time>2013-01-05T07:43:20Z</time>
      </trkpt>
      <trkpt lat="58.681927314" lon="15.9358771518">
        <ele>24.17</ele>
        <time>2013-01-05T07:43:29Z</time>
      </trkpt>
      <trkpt lat="58.6820346862" lon="15.9356948454">
        <ele>23.69</ele>
        <time>2013-01-05T07:43:32Z</time>
      </trkpt>
      <trkpt lat="58.6821359396" lon="15.9355184902">
        <ele>22.25</ele>
        <time>2013-01-05T07:43:35Z</time>
      </trkpt>
      <trkpt lat="58.6823587306" lon="15.9350481816">
        <ele>22.25</ele>
        <time>2013-01-05T07:43:42Z</time>
      </trkpt>
      <trkpt lat="58.6824946851" lon="15.9346706606">
        <ele>23.21</ele>
        <time>2013-01-05T07:43:47Z</time>
      </trkpt>
      <trkpt lat="58.6826816015" lon="15.9339514934">
        <ele>23.69</ele>
        <time>2013-01-05T07:43:56Z</time>
      </trkpt>
      <trkpt lat="58.6827108543" lon="15.9337860346">
        <ele>23.21</ele>
        <time>2013-01-05T07:43:58Z</time>
      </trkpt>
      <trkpt lat="58.6827352457" lon="15.93361957">
        <ele>23.69</ele>
        <time>2013-01-05T07:44:00Z</time>
      </trkpt>
      <trkpt lat="58.6828044802" lon="15.9328082856">
        <ele>23.21</ele>
        <time>2013-01-05T07:44:09Z</time>
      </trkpt>
      <trkpt lat="58.6828668416" lon="15.9325560741">
        <ele>23.21</ele>
        <time>2013-01-05T07:44:12Z</time>
      </trkpt>
      <trkpt lat="58.6829975154" lon="15.932072103">
        <ele>23.21</ele>
        <time>2013-01-05T07:44:18Z</time>
      </trkpt>
      <trkpt lat="58.6830306239" lon="15.9318986814">
        <ele>23.21</ele>
        <time>2013-01-05T07:44:20Z</time>
      </trkpt>
      <trkpt lat="58.6831986811" lon="15.9313241858">
        <ele>23.69</ele>
        <time>2013-01-05T07:44:27Z</time>
      </trkpt>
      <trkpt lat="58.6832748726" lon="15.9310816135">
        <ele>22.73</ele>
        <time>2013-01-05T07:44:30Z</time>
      </trkpt>
      <trkpt lat="58.6834471207" lon="15.9305978101">
        <ele>23.69</ele>
        <time>2013-01-05T07:44:36Z</time>
      </trkpt>
      <trkpt lat="58.6835397407" lon="15.9302674793">
        <ele>23.69</ele>
        <time>2013-01-05T07:44:40Z</time>
      </trkpt>
      <trkpt lat="58.6837561615" lon="15.9296371602">
        <ele>23.21</ele>
        <time>2013-01-05T07:44:48Z</time>
      </trkpt>
      <trkpt lat="58.6838725023" lon="15.9292413667">
        <ele>23.69</ele>
        <time>2013-01-05T07:44:53Z</time>
      </trkpt>
      <trkpt lat="58.684004182" lon="15.9286619257">
        <ele>23.69</ele>
        <time>2013-01-05T07:45:00Z</time>
      </trkpt>
      <trkpt lat="58.6840336863" lon="15.9284884203">
        <ele>23.69</ele>
        <time>2013-01-05T07:45:02Z</time>
      </trkpt>
      <trkpt lat="58.6840828042" lon="15.928232437">
        <ele>23.21</ele>
        <time>2013-01-05T07:45:05Z</time>
      </trkpt>
      <trkpt lat="58.684358988" lon="15.9276408423">
        <ele>23.69</ele>
        <time>2013-01-05T07:45:14Z</time>
      </trkpt>
      <trkpt lat="58.6843920965" lon="15.9275782295">
        <ele>23.69</ele>
        <time>2013-01-05T07:45:15Z</time>
      </trkpt>
      <trkpt lat="58.6844827887" lon="15.9273822606">
        <ele>22.25</ele>
        <time>2013-01-05T07:45:18Z</time>
      </trkpt>
      <trkpt lat="58.6847427953" lon="15.9268850461">
        <ele>22.73</ele>
        <time>2013-01-05T07:45:26Z</time>
      </trkpt>
      <trkpt lat="58.6849746387" lon="15.9260290023">
        <ele>23.21</ele>
        <time>2013-01-05T07:45:37Z</time>
      </trkpt>
      <trkpt lat="58.6850030534" lon="15.9257658105">
        <ele>23.21</ele>
        <time>2013-01-05T07:45:40Z</time>
      </trkpt>
      <trkpt lat="58.6850548536" lon="15.9255218133">
        <ele>24.17</ele>
        <time>2013-01-05T07:45:43Z</time>
      </trkpt>
      <trkpt lat="58.6851714458" lon="15.9252750501">
        <ele>24.17</ele>
        <time>2013-01-05T07:45:47Z</time>
      </trkpt>
      <trkpt lat="58.6855894513" lon="15.9247163963">
        <ele>23.69</ele>
        <time>2013-01-05T07:45:58Z</time>
      </trkpt>
      <trkpt lat="58.6857681535" lon="15.9245888237">
        <ele>24.17</ele>
        <time>2013-01-05T07:46:02Z</time>
      </trkpt>
      <trkpt lat="58.6860688124" lon="15.9244393744">
        <ele>23.69</ele>
        <time>2013-01-05T07:46:09Z</time>
      </trkpt>
      <trkpt lat="58.6862807907" lon="15.9243230335">
        <ele>23.21</ele>
        <time>2013-01-05T07:46:14Z</time>
      </trkpt>
      <trkpt lat="58.6864486802" lon="15.92427467">
        <ele>23.69</ele>
        <time>2013-01-05T07:46:18Z</time>
      </trkpt>
      <trkpt lat="58.6868417077" lon="15.9242217802">
        <ele>23.69</ele>
        <time>2013-01-05T07:46:27Z</time>
      </trkpt>
      <trkpt lat="58.686925862" lon="15.9241994843">
        <ele>23.69</ele>
        <time>2013-01-05T07:46:29Z</time>
      </trkpt>
      <trkpt lat="58.6871038936" lon="15.9241957963">
        <ele>22.73</ele>
        <time>2013-01-05T07:46:33Z</time>
      </trkpt>
      <trkpt lat="58.6874157004" lon="15.9242538828">
        <ele>23.69</ele>
        <time>2013-01-05T07:46:40Z</time>
      </trkpt>
      <trkpt lat="58.6875097454" lon="15.9242672101">
        <ele>24.17</ele>
        <time>2013-01-05T07:46:42Z</time>
      </trkpt>
      <trkpt lat="58.6879478674" lon="15.9244929347">
        <ele>23.21</ele>
        <time>2013-01-05T07:46:51Z</time>
      </trkpt>
      <trkpt lat="58.6879967339" lon="15.924528474">
        <ele>24.17</ele>
        <time>2013-01-05T07:46:52Z</time>
      </trkpt>
      <trkpt lat="58.6883296631" lon="15.9247595631">
        <ele>24.17</ele>
        <time>2013-01-05T07:46:59Z</time>
      </trkpt>
      <trkpt lat="58.6884313356" lon="15.92477859">
        <ele>23.69</ele>
        <time>2013-01-05T07:47:01Z</time>
      </trkpt>
      <trkpt lat="58.6888611596" lon="15.9246587288">
        <ele>22.73</ele>
        <time>2013-01-05T07:47:10Z</time>
      </trkpt>
      <trkpt lat="58.689031899" lon="15.9244967066">
        <ele>23.69</ele>
        <time>2013-01-05T07:47:14Z</time>
      </trkpt>
      <trkpt lat="58.6892562825" lon="15.9241812117">
        <ele>24.17</ele>
        <time>2013-01-05T07:47:20Z</time>
      </trkpt>
      <trkpt lat="58.6894965079" lon="15.9235895332">
        <ele>22.73</ele>
        <time>2013-01-05T07:47:29Z</time>
      </trkpt>
      <trkpt lat="58.6895185523" lon="15.9235187061">
        <ele>24.17</ele>
        <time>2013-01-05T07:47:30Z</time>
      </trkpt>
      <trkpt lat="58.6896338034" lon="15.9232048877">
        <ele>24.17</ele>
        <time>2013-01-05T07:47:35Z</time>
      </trkpt>
      <trkpt lat="58.6900162697" lon="15.922664674">
        <ele>24.65</ele>
        <time>2013-01-05T07:47:46Z</time>
      </trkpt>
      <trkpt lat="58.6901609413" lon="15.9224966168">
        <ele>24.17</ele>
        <time>2013-01-05T07:47:50Z</time>
      </trkpt>
      <trkpt lat="58.6902320199" lon="15.9223934356">
        <ele>24.65</ele>
        <time>2013-01-05T07:47:52Z</time>
      </trkpt>
      <trkpt lat="58.6904761847" lon="15.9218642022">
        <ele>24.17</ele>
        <time>2013-01-05T07:48:01Z</time>
      </trkpt>
      <trkpt lat="58.6905635241" lon="15.921581313">
        <ele>24.65</ele>
        <time>2013-01-05T07:48:05Z</time>
      </trkpt>
      <trkpt lat="58.6906243768" lon="15.9213632159">
        <ele>23.69</ele>
        <time>2013-01-05T07:48:08Z</time>
      </trkpt>
      <trkpt lat="58.6907813698" lon="15.9207605571">
        <ele>24.65</ele>
        <time>2013-01-05T07:48:16Z</time>
      </trkpt>
      <trkpt lat="58.6907854769" lon="15.919837039">
        <ele>25.13</ele>
        <time>2013-01-05T07:48:26Z</time>
      </trkpt>
      <trkpt lat="58.690770641" lon="15.9197500348">
        <ele>24.65</ele>
        <time>2013-01-05T07:48:27Z</time>
      </trkpt>
      <trkpt lat="58.6906590778" lon="15.9193498828">
        <ele>24.17</ele>
        <time>2013-01-05T07:48:32Z</time>
      </trkpt>
      <trkpt lat="58.690519603" lon="15.9187043086">
        <ele>23.21</ele>
        <time>2013-01-05T07:48:40Z</time>
      </trkpt>
      <trkpt lat="58.6906796973" lon="15.9181188326">
        <ele>24.17</ele>
        <time>2013-01-05T07:48:48Z</time>
      </trkpt>
      <trkpt lat="58.6909300648" lon="15.9175419062">
        <ele>24.65</ele>
        <time>2013-01-05T07:48:57Z</time>
      </trkpt>
      <trkpt lat="58.6911753193" lon="15.9168347251">
        <ele>24.17</ele>
        <time>2013-01-05T07:49:07Z</time>
      </trkpt>
      <trkpt lat="58.691222677" lon="15.9166948311">
        <ele>24.65</ele>
        <time>2013-01-05T07:49:09Z</time>
      </trkpt>
      <trkpt lat="58.6914182268" lon="15.9160281345">
        <ele>24.17</ele>
        <time>2013-01-05T07:49:18Z</time>
      </trkpt>
      <trkpt lat="58.6914373375" lon="15.9159538709">
        <ele>24.17</ele>
        <time>2013-01-05T07:49:19Z</time>
      </trkpt>
      <trkpt lat="58.6915675923" lon="15.9152105637">
        <ele>24.65</ele>
        <time>2013-01-05T07:49:29Z</time>
      </trkpt>
      <trkpt lat="58.6916820891" lon="15.9144932404">
        <ele>24.65</ele>
        <time>2013-01-05T07:49:38Z</time>
      </trkpt>
      <trkpt lat="58.6917714402" lon="15.9138534497">
        <ele>24.65</ele>
        <time>2013-01-05T07:49:46Z</time>
      </trkpt>
      <trkpt lat="58.6918075662" lon="15.9130963124">
        <ele>24.65</ele>
        <time>2013-01-05T07:49:55Z</time>
      </trkpt>
      <trkpt lat="58.6918139365" lon="15.9128461964">
        <ele>24.17</ele>
        <time>2013-01-05T07:49:58Z</time>
      </trkpt>
      <trkpt lat="58.6916877888" lon="15.9122183081">
        <ele>24.65</ele>
        <time>2013-01-05T07:50:06Z</time>
      </trkpt>
      <trkpt lat="58.6916414369" lon="15.9119799268">
        <ele>23.21</ele>
        <time>2013-01-05T07:50:09Z</time>
      </trkpt>
      <trkpt lat="58.6916404311" lon="15.9116453212">
        <ele>24.17</ele>
        <time>2013-01-05T07:50:13Z</time>
      </trkpt>
      <trkpt lat="58.6915466376" lon="15.9105417598">
        <ele>24.17</ele>
        <time>2013-01-05T07:50:28Z</time>
      </trkpt>
      <trkpt lat="58.6914177239" lon="15.9102340601">
        <ele>24.17</ele>
        <time>2013-01-05T07:50:37Z</time>
      </trkpt>
      <trkpt lat="58.6913727969" lon="15.9101533424">
        <ele>24.17</ele>
        <time>2013-01-05T07:50:50Z</time>
      </trkpt>
      <trkpt lat="58.6914328951" lon="15.9102630615">
        <ele>24.17</ele>
        <time>2013-01-05T07:51:02Z</time>
      </trkpt>
      <trkpt lat="58.6914271116" lon="15.9102902189">
        <ele>24.17</ele>
        <time>2013-01-05T07:51:16Z</time>
      </trkpt>
      <trkpt lat="58.6913381796" lon="15.9106771275">
        <ele>24.17</ele>
        <time>2013-01-05T07:51:24Z</time>
      </trkpt>
      <trkpt lat="58.6913116928" lon="15.9110157564">
        <ele>25.13</ele>
        <time>2013-01-05T07:51:29Z</time>
      </trkpt>
      <trkpt lat="58.6912772432" lon="15.9112286568">
        <ele>25.13</ele>
        <time>2013-01-05T07:51:32Z</time>
      </trkpt>
      <trkpt lat="58.6911538616" lon="15.9115356021">
        <ele>24.65</ele>
        <time>2013-01-05T07:51:37Z</time>
      </trkpt>
      <trkpt lat="58.6909338366" lon="15.9121078346">
        <ele>24.65</ele>
        <time>2013-01-05T07:51:46Z</time>
      </trkpt>
      <trkpt lat="58.6906169169" lon="15.9124651551">
        <ele>24.65</ele>
        <time>2013-01-05T07:51:55Z</time>
      </trkpt>
      <trkpt lat="58.6905434914" lon="15.9125259239">
        <ele>24.17</ele>
        <time>2013-01-05T07:51:57Z</time>
      </trkpt>
      <trkpt lat="58.6904682219" lon="15.9125784785">
        <ele>24.17</ele>
        <time>2013-01-05T07:51:59Z</time>
      </trkpt>
      <trkpt lat="58.6902606022" lon="15.9126790613">
        <ele>26.09</ele>
        <time>2013-01-05T07:52:04Z</time>
      </trkpt>
      <trkpt lat="58.690178711" lon="15.9127212223">
        <ele>25.13</ele>
        <time>2013-01-05T07:52:06Z</time>
      </trkpt>
      <trkpt lat="58.6898359749" lon="15.9127793927">
        <ele>24.65</ele>
        <time>2013-01-05T07:52:14Z</time>
      </trkpt>
      <trkpt lat="58.6896288581" lon="15.9127976652">
        <ele>24.17</ele>
        <time>2013-01-05T07:52:19Z</time>
      </trkpt>
      <trkpt lat="58.6893956736" lon="15.9128373954">
        <ele>25.13</ele>
        <time>2013-01-05T07:52:25Z</time>
      </trkpt>
      <trkpt lat="58.6891331524" lon="15.9132942092">
        <ele>24.65</ele>
        <time>2013-01-05T07:52:34Z</time>
      </trkpt>
      <trkpt lat="58.6889936775" lon="15.9135872405">
        <ele>24.65</ele>
        <time>2013-01-05T07:52:39Z</time>
      </trkpt>
      <trkpt lat="58.688937854" lon="15.9137178306">
        <ele>23.69</ele>
        <time>2013-01-05T07:52:41Z</time>
      </trkpt>
      <trkpt lat="58.6887032446" lon="15.9142078366">
        <ele>24.17</ele>
        <time>2013-01-05T07:52:50Z</time>
      </trkpt>
      <trkpt lat="58.6887237802" lon="15.9142151289">
        <ele>24.65</ele>
        <time>2013-01-05T07:52:53Z</time>
      </trkpt>
      <trkpt lat="58.6885676254" lon="15.9144149534">
        <ele>24.17</ele>
        <time>2013-01-05T07:53:00Z</time>
      </trkpt>
      <trkpt lat="58.6884968821" lon="15.914734723">
        <ele>25.13</ele>
        <time>2013-01-05T07:53:05Z</time>
      </trkpt>
      <trkpt lat="58.6884847283" lon="15.9148781374">
        <ele>25.13</ele>
        <time>2013-01-05T07:53:07Z</time>
      </trkpt>
      <trkpt lat="58.6885467544" lon="15.9152106475">
        <ele>24.17</ele>
        <time>2013-01-05T07:53:12Z</time>
      </trkpt>
      <trkpt lat="58.6884485185" lon="15.9155745897">
        <ele>25.13</ele>
        <time>2013-01-05T07:53:17Z</time>
      </trkpt>
      <trkpt lat="58.6882961355" lon="15.9161970299">
        <ele>24.65</ele>
        <time>2013-01-05T07:53:25Z</time>
      </trkpt>
      <trkpt lat="58.6882553995" lon="15.9163463954">
        <ele>24.65</ele>
        <time>2013-01-05T07:53:27Z</time>
      </trkpt>
      <trkpt lat="58.6881403159" lon="15.916708326">
        <ele>25.61</ele>
        <time>2013-01-05T07:53:32Z</time>
      </trkpt>
      <trkpt lat="58.6878320295" lon="15.9172015171">
        <ele>25.13</ele>
        <time>2013-01-05T07:53:41Z</time>
      </trkpt>
      <trkpt lat="58.6877752002" lon="15.9173264913">
        <ele>25.13</ele>
        <time>2013-01-05T07:53:43Z</time>
      </trkpt>
      <trkpt lat="58.6876655649" lon="15.9179418068">
        <ele>25.13</ele>
        <time>2013-01-05T07:53:51Z</time>
      </trkpt>
      <trkpt lat="58.6876189616" lon="15.9180813655">
        <ele>25.13</ele>
        <time>2013-01-05T07:53:53Z</time>
      </trkpt>
      <trkpt lat="58.6873834301" lon="15.9184142109">
        <ele>25.13</ele>
        <time>2013-01-05T07:54:00Z</time>
      </trkpt>
      <trkpt lat="58.6873099208" lon="15.9184763208">
        <ele>24.65</ele>
        <time>2013-01-05T07:54:02Z</time>
      </trkpt>
      <trkpt lat="58.6868740618" lon="15.9185461421">
        <ele>24.17</ele>
        <time>2013-01-05T07:54:13Z</time>
      </trkpt>
      <trkpt lat="58.6868357565" lon="15.9185593016">
        <ele>24.65</ele>
        <time>2013-01-05T07:54:14Z</time>
      </trkpt>
      <trkpt lat="58.6867596488" lon="15.9185843635">
        <ele>25.61</ele>
        <time>2013-01-05T07:54:16Z</time>
      </trkpt>
      <trkpt lat="58.6864164937" lon="15.9187180549">
        <ele>24.65</ele>
        <time>2013-01-05T07:54:25Z</time>
      </trkpt>
      <trkpt lat="58.6863162462" lon="15.9188188054">
        <ele>25.61</ele>
        <time>2013-01-05T07:54:28Z</time>
      </trkpt>
      <trkpt lat="58.6862138193" lon="15.9189343918">
        <ele>25.13</ele>
        <time>2013-01-05T07:54:31Z</time>
      </trkpt>
      <trkpt lat="58.6860755179" lon="15.9190881159">
        <ele>24.17</ele>
        <time>2013-01-05T07:54:35Z</time>
      </trkpt>
      <trkpt lat="58.6858516373" lon="15.9194140043">
        <ele>24.65</ele>
        <time>2013-01-05T07:54:42Z</time>
      </trkpt>
      <trkpt lat="58.6857670639" lon="15.9195825644">
        <ele>24.65</ele>
        <time>2013-01-05T07:54:45Z</time>
      </trkpt>
      <trkpt lat="58.685509488" lon="15.9200471733">
        <ele>24.65</ele>
        <time>2013-01-05T07:54:54Z</time>
      </trkpt>
      <trkpt lat="58.6854607053" lon="15.920161251">
        <ele>24.17</ele>
        <time>2013-01-05T07:54:56Z</time>
      </trkpt>
      <trkpt lat="58.6854056362" lon="15.9202719759">
        <ele>25.13</ele>
        <time>2013-01-05T07:54:58Z</time>
      </trkpt>
      <trkpt lat="58.6852419376" lon="15.9205745626">
        <ele>25.13</ele>
        <time>2013-01-05T07:55:04Z</time>
      </trkpt>
      <trkpt lat="58.6851380859" lon="15.9208946675">
        <ele>24.65</ele>
        <time>2013-01-05T07:55:09Z</time>
      </trkpt>
      <trkpt lat="58.6850276124" lon="15.9214529861">
        <ele>25.61</ele>
        <time>2013-01-05T07:55:17Z</time>
      </trkpt>
      <trkpt lat="58.684977321" lon="15.9216518886">
        <ele>25.13</ele>
        <time>2013-01-05T07:55:20Z</time>
      </trkpt>
      <trkpt lat="58.6847933382" lon="15.9218970593">
        <ele>25.13</ele>
        <time>2013-01-05T07:55:26Z</time>
      </trkpt>
      <trkpt lat="58.6845346726" lon="15.9221590776">
        <ele>24.65</ele>
        <time>2013-01-05T07:55:39Z</time>
      </trkpt>
      <trkpt lat="58.684504414" lon="15.922253374">
        <ele>25.13</ele>
        <time>2013-01-05T07:55:43Z</time>
      </trkpt>
      <trkpt lat="58.6844201759" lon="15.9224181622">
        <ele>25.13</ele>
        <time>2013-01-05T07:55:54Z</time>
      </trkpt>
      <trkpt lat="58.6843831278" lon="15.9224811941">
        <ele>25.13</ele>
        <time>2013-01-05T07:56:01Z</time>
      </trkpt>
      <trkpt lat="58.6843715608" lon="15.9228727967">
        <ele>24.65</ele>
        <time>2013-01-05T07:56:10Z</time>
      </trkpt>
      <trkpt lat="58.684080122" lon="15.9230542649">
        <ele>25.13</ele>
        <time>2013-01-05T07:56:19Z</time>
      </trkpt>
      <trkpt lat="58.6840096302" lon="15.9230967611">
        <ele>25.61</ele>
        <time>2013-01-05T07:56:21Z</time>
      </trkpt>
      <trkpt lat="58.6838826444" lon="15.9231963381">
        <ele>25.13</ele>
        <time>2013-01-05T07:56:25Z</time>
      </trkpt>
      <trkpt lat="58.6835847516" lon="15.9235387389">
        <ele>25.61</ele>
        <time>2013-01-05T07:56:36Z</time>
      </trkpt>
      <trkpt lat="58.6834412534" lon="15.9236202948">
        <ele>25.13</ele>
        <time>2013-01-05T07:56:41Z</time>
      </trkpt>
      <trkpt lat="58.6833802331" lon="15.9235284291">
        <ele>25.13</ele>
        <time>2013-01-05T07:56:50Z</time>
      </trkpt>
      <trkpt lat="58.6833982542" lon="15.9235011879">
        <ele>25.13</ele>
        <time>2013-01-05T07:56:58Z</time>
      </trkpt>
      <trkpt lat="58.6833760422" lon="15.9235078096">
        <ele>25.13</ele>
        <time>2013-01-05T07:57:01Z</time>
      </trkpt>
      <trkpt lat="58.6832945701" lon="15.9235519823">
        <ele>25.13</ele>
        <time>2013-01-05T07:57:13Z</time>
      </trkpt>
      <trkpt lat="58.6833052989" lon="15.9235648904">
        <ele>23.69</ele>
        <time>2013-01-05T07:57:27Z</time>
      </trkpt>
      <trkpt lat="58.6833001859" lon="15.9235670697">
        <ele>27.53</ele>
        <time>2013-01-05T07:57:28Z</time>
      </trkpt>
      <trkpt lat="58.6833003536" lon="15.9235621244">
        <ele>25.13</ele>
        <time>2013-01-05T07:57:29Z</time>
      </trkpt>
      <trkpt lat="58.6833068077" lon="15.9235427622">
        <ele>25.13</ele>
        <time>2013-01-05T07:57:58Z</time>
      </trkpt>
      <trkpt lat="58.6833193805" lon="15.9235381521">
        <ele>24.17</ele>
        <time>2013-01-05T07:58:28Z</time>
      </trkpt>
      <trkpt lat="58.6833222304" lon="15.9235324524">
        <ele>28.02</ele>
        <time>2013-01-05T07:58:30Z</time>
      </trkpt>
      <trkpt lat="58.6833186261" lon="15.9235378169">
        <ele>25.61</ele>
        <time>2013-01-05T07:58:31Z</time>
      </trkpt>
      <trkpt lat="58.6833039578" lon="15.9236023575">
        <ele>24.65</ele>
        <time>2013-01-05T07:59:03Z</time>
      </trkpt>
      <trkpt lat="58.6832986772" lon="15.9236034472">
        <ele>24.65</ele>
        <time>2013-01-05T07:59:38Z</time>
      </trkpt>
      <trkpt lat="58.6833037063" lon="15.9236122482">
        <ele>24.65</ele>
        <time>2013-01-05T08:00:04Z</time>
      </trkpt>
      <trkpt lat="58.6832722742" lon="15.9236956481">
        <ele>24.65</ele>
        <time>2013-01-05T08:00:34Z</time>
      </trkpt>
      <trkpt lat="58.6832986772" lon="15.9236511402">
        <ele>24.65</ele>
        <time>2013-01-05T08:01:02Z</time>
      </trkpt>
      <trkpt lat="58.6833058018" lon="15.9236339573">
        <ele>24.65</ele>
        <time>2013-01-05T08:01:33Z</time>
      </trkpt>
      <trkpt lat="58.6833180394" lon="15.9236096498">
        <ele>25.13</ele>
        <time>2013-01-05T08:02:06Z</time>
      </trkpt>
      <trkpt lat="58.6833101604" lon="15.9236106556">
        <ele>25.13</ele>
        <time>2013-01-05T08:02:38Z</time>
      </trkpt>
      <trkpt lat="58.683313597" lon="15.9235794749">
        <ele>25.61</ele>
        <time>2013-01-05T08:03:12Z</time>
      </trkpt>
      <trkpt lat="58.6833470408" lon="15.9235404152">
        <ele>25.13</ele>
        <time>2013-01-05T08:03:32Z</time>
      </trkpt>
      <trkpt lat="58.6833140161" lon="15.9234540816">
        <ele>25.13</ele>
        <time>2013-01-05T08:04:03Z</time>
      </trkpt>
      <trkpt lat="58.6833061371" lon="15.923593808">
        <ele>25.61</ele>
        <time>2013-01-05T08:04:23Z</time>
      </trkpt>
      <trkpt lat="58.6833261698" lon="15.9235776309">
        <ele>24.65</ele>
        <time>2013-01-05T08:04:53Z</time>
      </trkpt>
      <trkpt lat="58.6833406705" lon="15.9236064646">
        <ele>25.13</ele>
        <time>2013-01-05T08:05:20Z</time>
      </trkpt>
      <trkpt lat="58.6833337974" lon="15.9236033633">
        <ele>22.73</ele>
        <time>2013-01-05T08:05:25Z</time>
      </trkpt>
      <trkpt lat="58.6833312828" lon="15.923603531">
        <ele>28.5</ele>
        <time>2013-01-05T08:05:26Z</time>
      </trkpt>
      <trkpt lat="58.6833341327" lon="15.9236064646">
        <ele>25.61</ele>
        <time>2013-01-05T08:05:27Z</time>
      </trkpt>
      <trkpt lat="58.6833385751" lon="15.9236088954">
        <ele>24.65</ele>
        <time>2013-01-05T08:05:28Z</time>
      </trkpt>
      <trkpt lat="58.683321476" lon="15.9236318618">
        <ele>24.65</ele>
        <time>2013-01-05T08:05:30Z</time>
      </trkpt>
      <trkpt lat="58.6831312906" lon="15.9237730969">
        <ele>24.65</ele>
        <time>2013-01-05T08:05:40Z</time>
      </trkpt>
      <trkpt lat="58.683089884" lon="15.9238280822">
        <ele>25.13</ele>
        <time>2013-01-05T08:05:42Z</time>
      </trkpt>
      <trkpt lat="58.6828410253" lon="15.924315406">
        <ele>24.65</ele>
        <time>2013-01-05T08:05:54Z</time>
      </trkpt>
      <trkpt lat="58.6826708727" lon="15.924596535">
        <ele>25.13</ele>
        <time>2013-01-05T08:06:00Z</time>
      </trkpt>
      <trkpt lat="58.6825792585" lon="15.9247535281">
        <ele>25.13</ele>
        <time>2013-01-05T08:06:03Z</time>
      </trkpt>
      <trkpt lat="58.6824552063" lon="15.9249603935">
        <ele>24.65</ele>
        <time>2013-01-05T08:06:07Z</time>
      </trkpt>
      <trkpt lat="58.6822943576" lon="15.9252105933">
        <ele>24.65</ele>
        <time>2013-01-05T08:06:12Z</time>
      </trkpt>
      <trkpt lat="58.6821273901" lon="15.9255619626">
        <ele>26.09</ele>
        <time>2013-01-05T08:06:18Z</time>
      </trkpt>
      <trkpt lat="58.6820864864" lon="15.9256959893">
        <ele>24.65</ele>
        <time>2013-01-05T08:06:20Z</time>
      </trkpt>
      <trkpt lat="58.6817590054" lon="15.9261901025">
        <ele>24.65</ele>
        <time>2013-01-05T08:06:30Z</time>
      </trkpt>
      <trkpt lat="58.6815625336" lon="15.9265096206">
        <ele>25.13</ele>
        <time>2013-01-05T08:06:36Z</time>
      </trkpt>
      <trkpt lat="58.6815010943" lon="15.9266371094">
        <ele>25.13</ele>
        <time>2013-01-05T08:06:38Z</time>
      </trkpt>
      <trkpt lat="58.6814441811" lon="15.9267690405">
        <ele>25.13</ele>
        <time>2013-01-05T08:06:40Z</time>
      </trkpt>
      <trkpt lat="58.6813305225" lon="15.9272845276">
        <ele>25.61</ele>
        <time>2013-01-05T08:06:47Z</time>
      </trkpt>
      <trkpt lat="58.6811976694" lon="15.9276149422">
        <ele>25.13</ele>
        <time>2013-01-05T08:06:52Z</time>
      </trkpt>
      <trkpt lat="58.6810273491" lon="15.9279803094">
        <ele>25.13</ele>
        <time>2013-01-05T08:06:58Z</time>
      </trkpt>
      <trkpt lat="58.6807125248" lon="15.9286656138">
        <ele>24.17</ele>
        <time>2013-01-05T08:07:09Z</time>
      </trkpt>
      <trkpt lat="58.6806125287" lon="15.9289474972">
        <ele>25.13</ele>
        <time>2013-01-05T08:07:13Z</time>
      </trkpt>
      <trkpt lat="58.6805430427" lon="15.9291552007">
        <ele>25.13</ele>
        <time>2013-01-05T08:07:16Z</time>
      </trkpt>
      <trkpt lat="58.6803885642" lon="15.929418141">
        <ele>24.65</ele>
        <time>2013-01-05T08:07:21Z</time>
      </trkpt>
      <trkpt lat="58.6803170666" lon="15.9295187239">
        <ele>25.13</ele>
        <time>2013-01-05T08:07:23Z</time>
      </trkpt>
      <trkpt lat="58.6801692098" lon="15.9297000244">
        <ele>24.65</ele>
        <time>2013-01-05T08:07:27Z</time>
      </trkpt>
      <trkpt lat="58.6798967142" lon="15.9300850052">
        <ele>24.65</ele>
        <time>2013-01-05T08:07:35Z</time>
      </trkpt>
      <trkpt lat="58.6798293237" lon="15.9301872645">
        <ele>24.65</ele>
        <time>2013-01-05T08:07:37Z</time>
      </trkpt>
      <trkpt lat="58.6795194447" lon="15.930686323">
        <ele>25.13</ele>
        <time>2013-01-05T08:07:47Z</time>
      </trkpt>
      <trkpt lat="58.6794252321" lon="15.9308278933">
        <ele>24.65</ele>
        <time>2013-01-05T08:07:50Z</time>
      </trkpt>
      <trkpt lat="58.679136727" lon="15.9312950168">
        <ele>25.13</ele>
        <time>2013-01-05T08:07:59Z</time>
      </trkpt>
      <trkpt lat="58.6790701747" lon="15.9313957673">
        <ele>24.65</ele>
        <time>2013-01-05T08:08:01Z</time>
      </trkpt>
      <trkpt lat="58.6789683346" lon="15.93153717">
        <ele>25.13</ele>
        <time>2013-01-05T08:08:04Z</time>
      </trkpt>
      <trkpt lat="58.6788428575" lon="15.9317500703">
        <ele>25.13</ele>
        <time>2013-01-05T08:08:08Z</time>
      </trkpt>
      <trkpt lat="58.6787850223" lon="15.9318696801">
        <ele>25.13</ele>
        <time>2013-01-05T08:08:10Z</time>
      </trkpt>
      <trkpt lat="58.6786415242" lon="15.9320482146">
        <ele>25.13</ele>
        <time>2013-01-05T08:08:14Z</time>
      </trkpt>
      <trkpt lat="58.6785833538" lon="15.9321596939">
        <ele>25.13</ele>
        <time>2013-01-05T08:08:16Z</time>
      </trkpt>
      <trkpt lat="58.6784696952" lon="15.932485247">
        <ele>25.61</ele>
        <time>2013-01-05T08:08:21Z</time>
      </trkpt>
      <trkpt lat="58.6783900671" lon="15.9326771926">
        <ele>24.65</ele>
        <time>2013-01-05T08:08:24Z</time>
      </trkpt>
      <trkpt lat="58.6782526877" lon="15.9328841418">
        <ele>25.13</ele>
        <time>2013-01-05T08:08:28Z</time>
      </trkpt>
      <trkpt lat="58.6780541204" lon="15.9331848845">
        <ele>25.61</ele>
        <time>2013-01-05T08:08:34Z</time>
      </trkpt>
      <trkpt lat="58.6778822076" lon="15.9334378503">
        <ele>25.13</ele>
        <time>2013-01-05T08:08:39Z</time>
      </trkpt>
      <trkpt lat="58.6778161582" lon="15.9335448872">
        <ele>24.17</ele>
        <time>2013-01-05T08:08:41Z</time>
      </trkpt>
      <trkpt lat="58.6776766833" lon="15.9337311331">
        <ele>25.13</ele>
        <time>2013-01-05T08:08:45Z</time>
      </trkpt>
      <trkpt lat="58.6775831413" lon="15.9338850249">
        <ele>24.65</ele>
        <time>2013-01-05T08:08:48Z</time>
      </trkpt>
      <trkpt lat="58.6772957258" lon="15.9343591053">
        <ele>25.61</ele>
        <time>2013-01-05T08:08:57Z</time>
      </trkpt>
      <trkpt lat="58.6770026106" lon="15.9346795455">
        <ele>25.61</ele>
        <time>2013-01-05T08:09:05Z</time>
      </trkpt>
      <trkpt lat="58.6769392435" lon="15.9347715788">
        <ele>24.65</ele>
        <time>2013-01-05T08:09:07Z</time>
      </trkpt>
      <trkpt lat="58.6768740322" lon="15.9348707367">
        <ele>25.13</ele>
        <time>2013-01-05T08:09:09Z</time>
      </trkpt>
      <trkpt lat="58.6767462082" lon="15.9350646939">
        <ele>25.61</ele>
        <time>2013-01-05T08:09:13Z</time>
      </trkpt>
      <trkpt lat="58.676664317" lon="15.9352440666">
        <ele>25.13</ele>
        <time>2013-01-05T08:09:16Z</time>
      </trkpt>
      <trkpt lat="58.6765268538" lon="15.9355508443">
        <ele>25.13</ele>
        <time>2013-01-05T08:09:21Z</time>
      </trkpt>
      <trkpt lat="58.6764665041" lon="15.9356660955">
        <ele>25.13</ele>
        <time>2013-01-05T08:09:23Z</time>
      </trkpt>
      <trkpt lat="58.676286377" lon="15.9359118529">
        <ele>25.61</ele>
        <time>2013-01-05T08:09:28Z</time>
      </trkpt>
      <trkpt lat="58.6761043221" lon="15.9361538384">
        <ele>25.13</ele>
        <time>2013-01-05T08:09:33Z</time>
      </trkpt>
      <trkpt lat="58.6760313157" lon="15.9362345561">
        <ele>25.13</ele>
        <time>2013-01-05T08:09:35Z</time>
      </trkpt>
      <trkpt lat="58.6758754123" lon="15.9363699239">
        <ele>25.61</ele>
        <time>2013-01-05T08:09:39Z</time>
      </trkpt>
      <trkpt lat="58.6755859852" lon="15.9367142525">
        <ele>26.09</ele>
        <time>2013-01-05T08:09:47Z</time>
      </trkpt>
      <trkpt lat="58.6755173374" lon="15.9368147515">
        <ele>25.61</ele>
        <time>2013-01-05T08:09:49Z</time>
      </trkpt>
      <trkpt lat="58.6752440874" lon="15.9371045139">
        <ele>25.61</ele>
        <time>2013-01-05T08:09:56Z</time>
      </trkpt>
      <trkpt lat="58.6749938875" lon="15.9373133071">
        <ele>26.09</ele>
        <time>2013-01-05T08:10:02Z</time>
      </trkpt>
      <trkpt lat="58.6748834141" lon="15.9374684561">
        <ele>25.61</ele>
        <time>2013-01-05T08:10:05Z</time>
      </trkpt>
      <trkpt lat="58.6746639758" lon="15.9377234336">
        <ele>25.61</ele>
        <time>2013-01-05T08:10:11Z</time>
      </trkpt>
      <trkpt lat="58.6745757144" lon="15.9378935024">
        <ele>26.09</ele>
        <time>2013-01-05T08:10:14Z</time>
      </trkpt>
      <trkpt lat="58.6743729562" lon="15.9381643217">
        <ele>25.13</ele>
        <time>2013-01-05T08:10:20Z</time>
      </trkpt>
      <trkpt lat="58.6743089184" lon="15.938260043">
        <ele>25.61</ele>
        <time>2013-01-05T08:10:22Z</time>
      </trkpt>
      <trkpt lat="58.6741073336" lon="15.9384269267">
        <ele>26.09</ele>
        <time>2013-01-05T08:10:27Z</time>
      </trkpt>
      <trkpt lat="58.6740231793" lon="15.9384789784">
        <ele>25.61</ele>
        <time>2013-01-05T08:10:29Z</time>
      </trkpt>
      <trkpt lat="58.6737290584" lon="15.9386413358">
        <ele>25.61</ele>
        <time>2013-01-05T08:10:36Z</time>
      </trkpt>
      <trkpt lat="58.6736127175" lon="15.9387660585">
        <ele>25.61</ele>
        <time>2013-01-05T08:10:39Z</time>
      </trkpt>
      <trkpt lat="58.6734488513" lon="15.9388891049">
        <ele>25.61</ele>
        <time>2013-01-05T08:10:43Z</time>
      </trkpt>
      <trkpt lat="58.6733445805" lon="15.939019192">
        <ele>25.61</ele>
        <time>2013-01-05T08:10:46Z</time>
      </trkpt>
      <trkpt lat="58.6731842346" lon="15.9392044321">
        <ele>25.61</ele>
        <time>2013-01-05T08:10:55Z</time>
      </trkpt>
      <trkpt lat="58.673192868" lon="15.9391993191">
        <ele>25.61</ele>
        <time>2013-01-05T08:11:03Z</time>
      </trkpt>
      <trkpt lat="58.6731923651" lon="15.9392088745">
        <ele>25.13</ele>
        <time>2013-01-05T08:11:22Z</time>
      </trkpt>
      <trkpt lat="58.6731913593" lon="15.9392029233">
        <ele>18.4</ele>
        <time>2013-01-05T08:11:23Z</time>
      </trkpt>
      <trkpt lat="58.6731944606" lon="15.9392063599">
        <ele>28.5</ele>
        <time>2013-01-05T08:11:24Z</time>
      </trkpt>
      <trkpt lat="58.6731936224" lon="15.9392224532">
        <ele>25.61</ele>
        <time>2013-01-05T08:11:26Z</time>
      </trkpt>
      <trkpt lat="58.6731959693" lon="15.9392267279">
        <ele>25.13</ele>
        <time>2013-01-05T08:11:27Z</time>
      </trkpt>
      <trkpt lat="58.6732036807" lon="15.9392277338">
        <ele>24.17</ele>
        <time>2013-01-05T08:11:37Z</time>
      </trkpt>
      <trkpt lat="58.6729592644" lon="15.939552784">
        <ele>25.61</ele>
        <time>2013-01-05T08:11:46Z</time>
      </trkpt>
      <trkpt lat="58.6728897784" lon="15.9396382794">
        <ele>25.61</ele>
        <time>2013-01-05T08:11:48Z</time>
      </trkpt>
      <trkpt lat="58.6728166882" lon="15.939734336">
        <ele>25.13</ele>
        <time>2013-01-05T08:11:50Z</time>
      </trkpt>
      <trkpt lat="58.6726426799" lon="15.9400584642">
        <ele>25.61</ele>
        <time>2013-01-05T08:11:56Z</time>
      </trkpt>
      <trkpt lat="58.6723581981" lon="15.9407178685">
        <ele>25.61</ele>
        <time>2013-01-05T08:12:11Z</time>
      </trkpt>
      <trkpt lat="58.6723680049" lon="15.9407107439">
        <ele>20.81</ele>
        <time>2013-01-05T08:12:23Z</time>
      </trkpt>
      <trkpt lat="58.6721542664" lon="15.9407631308">
        <ele>25.61</ele>
        <time>2013-01-05T08:12:31Z</time>
      </trkpt>
      <trkpt lat="58.6720558628" lon="15.940840831">
        <ele>25.61</ele>
        <time>2013-01-05T08:12:34Z</time>
      </trkpt>
      <trkpt lat="58.671958968" lon="15.9409621172">
        <ele>25.61</ele>
        <time>2013-01-05T08:12:37Z</time>
      </trkpt>
      <trkpt lat="58.67182469" lon="15.9411245584">
        <ele>26.09</ele>
        <time>2013-01-05T08:12:41Z</time>
      </trkpt>
      <trkpt lat="58.6717232689" lon="15.9412636142">
        <ele>26.09</ele>
        <time>2013-01-05T08:12:44Z</time>
      </trkpt>
      <trkpt lat="58.6715809442" lon="15.9414581582">
        <ele>26.09</ele>
        <time>2013-01-05T08:12:48Z</time>
      </trkpt>
      <trkpt lat="58.6715167388" lon="15.941569889">
        <ele>26.09</ele>
        <time>2013-01-05T08:12:50Z</time>
      </trkpt>
      <trkpt lat="58.6713353544" lon="15.9419367649">
        <ele>26.09</ele>
        <time>2013-01-05T08:12:56Z</time>
      </trkpt>
      <trkpt lat="58.6712882482" lon="15.9420894831">
        <ele>25.61</ele>
        <time>2013-01-05T08:12:58Z</time>
      </trkpt>
      <trkpt lat="58.6709843203" lon="15.9423994459">
        <ele>26.09</ele>
        <time>2013-01-05T08:13:06Z</time>
      </trkpt>
      <trkpt lat="58.6709382199" lon="15.9424146172">
        <ele>25.13</ele>
        <time>2013-01-05T08:13:07Z</time>
      </trkpt>
      <trkpt lat="58.6708448455" lon="15.9424263518">
        <ele>26.57</ele>
        <time>2013-01-05T08:13:09Z</time>
      </trkpt>
      <trkpt lat="58.6706527323" lon="15.9423969314">
        <ele>25.61</ele>
        <time>2013-01-05T08:13:13Z</time>
      </trkpt>
      <trkpt lat="58.6705550831" lon="15.9423959255">
        <ele>26.57</ele>
        <time>2013-01-05T08:13:15Z</time>
      </trkpt>
      <trkpt lat="58.6701269355" lon="15.9422778245">
        <ele>26.09</ele>
        <time>2013-01-05T08:13:24Z</time>
      </trkpt>
      <trkpt lat="58.6700306274" lon="15.9422522597">
        <ele>25.61</ele>
        <time>2013-01-05T08:13:26Z</time>
      </trkpt>
      <trkpt lat="58.6699406058" lon="15.9422290418">
        <ele>25.13</ele>
        <time>2013-01-05T08:13:28Z</time>
      </trkpt>
      <trkpt lat="58.6696650088" lon="15.9421243519">
        <ele>26.09</ele>
        <time>2013-01-05T08:13:34Z</time>
      </trkpt>
      <trkpt lat="58.669572724" lon="15.9421074204">
        <ele>26.09</ele>
        <time>2013-01-05T08:13:36Z</time>
      </trkpt>
      <trkpt lat="58.669350436" lon="15.9421035647">
        <ele>26.57</ele>
        <time>2013-01-05T08:13:41Z</time>
      </trkpt>
      <trkpt lat="58.6688813008" lon="15.9421075881">
        <ele>26.57</ele>
        <time>2013-01-05T08:13:51Z</time>
      </trkpt>
      <trkpt lat="58.6687408201" lon="15.9421028104">
        <ele>26.09</ele>
        <time>2013-01-05T08:13:54Z</time>
      </trkpt>
      <trkpt lat="58.6685598549" lon="15.9420236014">
        <ele>26.57</ele>
        <time>2013-01-05T08:13:58Z</time>
      </trkpt>
      <trkpt lat="58.6683865171" lon="15.9419147205">
        <ele>26.09</ele>
        <time>2013-01-05T08:14:02Z</time>
      </trkpt>
      <trkpt lat="58.6682982557" lon="15.9418776724">
        <ele>26.57</ele>
        <time>2013-01-05T08:14:04Z</time>
      </trkpt>
      <trkpt lat="58.6679010373" lon="15.941803325">
        <ele>26.57</ele>
        <time>2013-01-05T08:14:13Z</time>
      </trkpt>
      <trkpt lat="58.6677240953" lon="15.9417478368">
        <ele>26.57</ele>
        <time>2013-01-05T08:14:17Z</time>
      </trkpt>
      <trkpt lat="58.6676368397" lon="15.9417179134">
        <ele>25.61</ele>
        <time>2013-01-05T08:14:19Z</time>
      </trkpt>
      <trkpt lat="58.6674059182" lon="15.9414156619">
        <ele>25.61</ele>
        <time>2013-01-05T08:14:26Z</time>
      </trkpt>
      <trkpt lat="58.6673966143" lon="15.9412630275">
        <ele>26.09</ele>
        <time>2013-01-05T08:14:28Z</time>
      </trkpt>
      <trkpt lat="58.6674334947" lon="15.9409608599">
        <ele>25.13</ele>
        <time>2013-01-05T08:14:32Z</time>
      </trkpt>
      <trkpt lat="58.6674877256" lon="15.9405636415">
        <ele>26.57</ele>
        <time>2013-01-05T08:14:37Z</time>
      </trkpt>
      <trkpt lat="58.6675621569" lon="15.9401798341">
        <ele>26.09</ele>
        <time>2013-01-05T08:14:42Z</time>
      </trkpt>
      <trkpt lat="58.6676347442" lon="15.9396937676">
        <ele>26.09</ele>
        <time>2013-01-05T08:14:48Z</time>
      </trkpt>
      <trkpt lat="58.667616304" lon="15.9393900912">
        <ele>26.57</ele>
        <time>2013-01-05T08:14:52Z</time>
      </trkpt>
      <trkpt lat="58.6675788369" lon="15.9386926331">
        <ele>27.05</ele>
        <time>2013-01-05T08:15:01Z</time>
      </trkpt>
      <trkpt lat="58.6675360054" lon="15.9385670722">
        <ele>26.57</ele>
        <time>2013-01-05T08:15:03Z</time>
      </trkpt>
      <trkpt lat="58.6671951972" lon="15.938154012">
        <ele>27.05</ele>
        <time>2013-01-05T08:15:13Z</time>
      </trkpt>
      <trkpt lat="58.6670398805" lon="15.9381130245">
        <ele>26.09</ele>
        <time>2013-01-05T08:15:17Z</time>
      </trkpt>
      <trkpt lat="58.6668216158" lon="15.938182259">
        <ele>26.57</ele>
        <time>2013-01-05T08:15:23Z</time>
      </trkpt>
      <trkpt lat="58.6667630263" lon="15.9382603783">
        <ele>27.05</ele>
        <time>2013-01-05T08:15:25Z</time>
      </trkpt>
      <trkpt lat="58.6665674765" lon="15.9382338915">
        <ele>26.57</ele>
        <time>2013-01-05T08:15:30Z</time>
      </trkpt>
      <trkpt lat="58.6664173566" lon="15.938125765">
        <ele>26.57</ele>
        <time>2013-01-05T08:15:34Z</time>
      </trkpt>
      <trkpt lat="58.6662968248" lon="15.9381032176">
        <ele>26.09</ele>
        <time>2013-01-05T08:15:37Z</time>
      </trkpt>
      <trkpt lat="58.665989209" lon="15.9377472382">
        <ele>26.57</ele>
        <time>2013-01-05T08:15:46Z</time>
      </trkpt>
      <trkpt lat="58.6660203058" lon="15.9374125488">
        <ele>26.57</ele>
        <time>2013-01-05T08:15:52Z</time>
      </trkpt>
      <trkpt lat="58.6661175359" lon="15.937285563">
        <ele>27.05</ele>
        <time>2013-01-05T08:15:55Z</time>
      </trkpt>
      <trkpt lat="58.6662021093" lon="15.9371335991">
        <ele>26.09</ele>
        <time>2013-01-05T08:15:58Z</time>
      </trkpt>
      <trkpt lat="58.6664886028" lon="15.9367216285">
        <ele>26.57</ele>
        <time>2013-01-05T08:16:07Z</time>
      </trkpt>
      <trkpt lat="58.666709885" lon="15.9362918045">
        <ele>26.57</ele>
        <time>2013-01-05T08:16:15Z</time>
      </trkpt>
      <trkpt lat="58.6668627709" lon="15.9360138606">
        <ele>26.57</ele>
        <time>2013-01-05T08:16:20Z</time>
      </trkpt>
      <trkpt lat="58.666908117" lon="15.9358774871">
        <ele>26.57</ele>
        <time>2013-01-05T08:16:22Z</time>
      </trkpt>
      <trkpt lat="58.6670251284" lon="15.9354611579">
        <ele>26.09</ele>
        <time>2013-01-05T08:16:28Z</time>
      </trkpt>
      <trkpt lat="58.6670210212" lon="15.9353014827">
        <ele>26.57</ele>
        <time>2013-01-05T08:16:30Z</time>
      </trkpt>
      <trkpt lat="58.6668472644" lon="15.9347704053">
        <ele>26.09</ele>
        <time>2013-01-05T08:16:38Z</time>
      </trkpt>
      <trkpt lat="58.6667811312" lon="15.9346588422">
        <ele>26.09</ele>
        <time>2013-01-05T08:16:40Z</time>
      </trkpt>
      <trkpt lat="58.6664730962" lon="15.9343126696">
        <ele>27.05</ele>
        <time>2013-01-05T08:16:49Z</time>
      </trkpt>
      <trkpt lat="58.6662824918" lon="15.9343130887">
        <ele>26.09</ele>
        <time>2013-01-05T08:16:54Z</time>
      </trkpt>
      <trkpt lat="58.6661456991" lon="15.934475027">
        <ele>26.57</ele>
        <time>2013-01-05T08:16:58Z</time>
      </trkpt>
      <trkpt lat="58.665997088" lon="15.9347340278">
        <ele>26.09</ele>
        <time>2013-01-05T08:17:03Z</time>
      </trkpt>
      <trkpt lat="58.6659088265" lon="15.934885405">
        <ele>26.57</ele>
        <time>2013-01-05T08:17:06Z</time>
      </trkpt>
      <trkpt lat="58.665703889" lon="15.9353618324">
        <ele>26.57</ele>
        <time>2013-01-05T08:17:14Z</time>
      </trkpt>
      <trkpt lat="58.6656416114" lon="15.9354598168">
        <ele>26.57</ele>
        <time>2013-01-05T08:17:16Z</time>
      </trkpt>
      <trkpt lat="58.6655989476" lon="15.9355806839">
        <ele>26.57</ele>
        <time>2013-01-05T08:17:18Z</time>
      </trkpt>
      <trkpt lat="58.6654677708" lon="15.9359632339">
        <ele>26.57</ele>
        <time>2013-01-05T08:17:24Z</time>
      </trkpt>
      <trkpt lat="58.6653256975" lon="15.9362642281">
        <ele>26.57</ele>
        <time>2013-01-05T08:17:29Z</time>
      </trkpt>
      <trkpt lat="58.6651548743" lon="15.9368862491">
        <ele>26.09</ele>
        <time>2013-01-05T08:17:38Z</time>
      </trkpt>
      <trkpt lat="58.6649306584" lon="15.9371959604">
        <ele>25.13</ele>
        <time>2013-01-05T08:17:46Z</time>
      </trkpt>
      <trkpt lat="58.6648513656" lon="15.9372041747">
        <ele>26.57</ele>
        <time>2013-01-05T08:17:48Z</time>
      </trkpt>
      <trkpt lat="58.664696971" lon="15.9371273965">
        <ele>25.61</ele>
        <time>2013-01-05T08:17:52Z</time>
      </trkpt>
      <trkpt lat="58.6644305103" lon="15.9368784539">
        <ele>26.09</ele>
        <time>2013-01-05T08:17:59Z</time>
      </trkpt>
      <trkpt lat="58.6643505469" lon="15.9368145">
        <ele>25.61</ele>
        <time>2013-01-05T08:18:01Z</time>
      </trkpt>
      <trkpt lat="58.6641386524" lon="15.9366916213">
        <ele>25.61</ele>
        <time>2013-01-05T08:18:06Z</time>
      </trkpt>
      <trkpt lat="58.6637435295" lon="15.9363968298">
        <ele>25.61</ele>
        <time>2013-01-05T08:18:15Z</time>
      </trkpt>
      <trkpt lat="58.6636402644" lon="15.9362251684">
        <ele>26.57</ele>
        <time>2013-01-05T08:18:18Z</time>
      </trkpt>
      <trkpt lat="58.6635670066" lon="15.9359334782">
        <ele>25.61</ele>
        <time>2013-01-05T08:18:22Z</time>
      </trkpt>
      <trkpt lat="58.6634835228" lon="15.9352921788">
        <ele>26.09</ele>
        <time>2013-01-05T08:18:30Z</time>
      </trkpt>
      <trkpt lat="58.6632687785" lon="15.934896972">
        <ele>26.57</ele>
        <time>2013-01-05T08:18:38Z</time>
      </trkpt>
      <trkpt lat="58.6629731487" lon="15.9347602632">
        <ele>26.09</ele>
        <time>2013-01-05T08:18:46Z</time>
      </trkpt>
      <trkpt lat="58.6629371904" lon="15.9347827267">
        <ele>26.09</ele>
        <time>2013-01-05T08:18:47Z</time>
      </trkpt>
      <trkpt lat="58.6628650222" lon="15.9348471835">
        <ele>25.61</ele>
        <time>2013-01-05T08:18:49Z</time>
      </trkpt>
      <trkpt lat="58.6627221107" lon="15.9349798691">
        <ele>26.09</ele>
        <time>2013-01-05T08:18:53Z</time>
      </trkpt>
      <trkpt lat="58.6625204422" lon="15.9350732435">
        <ele>26.57</ele>
        <time>2013-01-05T08:18:58Z</time>
      </trkpt>
      <trkpt lat="58.6624196079" lon="15.9351876564">
        <ele>25.61</ele>
        <time>2013-01-05T08:19:01Z</time>
      </trkpt>
      <trkpt lat="58.6621253192" lon="15.935476413">
        <ele>26.57</ele>
        <time>2013-01-05T08:19:09Z</time>
      </trkpt>
      <trkpt lat="58.6620308552" lon="15.935614882">
        <ele>25.61</ele>
        <time>2013-01-05T08:19:12Z</time>
      </trkpt>
      <trkpt lat="58.6618917994" lon="15.9357789159">
        <ele>26.09</ele>
        <time>2013-01-05T08:19:16Z</time>
      </trkpt>
      <trkpt lat="58.6617365666" lon="15.9360131901">
        <ele>26.57</ele>
        <time>2013-01-05T08:19:21Z</time>
      </trkpt>
      <trkpt lat="58.6615053937" lon="15.9363232367">
        <ele>26.09</ele>
        <time>2013-01-05T08:19:28Z</time>
      </trkpt>
      <trkpt lat="58.6613509152" lon="15.9366480354">
        <ele>26.09</ele>
        <time>2013-01-05T08:19:34Z</time>
      </trkpt>
      <trkpt lat="58.6612482369" lon="15.9368555713">
        <ele>26.09</ele>
        <time>2013-01-05T08:19:38Z</time>
      </trkpt>
      <trkpt lat="58.6609621625" lon="15.9373989701">
        <ele>26.09</ele>
        <time>2013-01-05T08:19:49Z</time>
      </trkpt>
      <trkpt lat="58.6609061714" lon="15.9374932665">
        <ele>26.57</ele>
        <time>2013-01-05T08:19:51Z</time>
      </trkpt>
      <trkpt lat="58.6605213583" lon="15.9377594758">
        <ele>25.61</ele>
        <time>2013-01-05T08:20:03Z</time>
      </trkpt>
      <trkpt lat="58.6602812167" lon="15.9374376107">
        <ele>26.09</ele>
        <time>2013-01-05T08:20:14Z</time>
      </trkpt>
      <trkpt lat="58.6600149237" lon="15.9375173226">
        <ele>25.13</ele>
        <time>2013-01-05T08:20:23Z</time>
      </trkpt>
      <trkpt lat="58.6597482115" lon="15.9377743118">
        <ele>25.61</ele>
        <time>2013-01-05T08:20:31Z</time>
      </trkpt>
      <trkpt lat="58.6597114149" lon="15.9378127009">
        <ele>26.09</ele>
        <time>2013-01-05T08:20:32Z</time>
      </trkpt>
      <trkpt lat="58.6596056353" lon="15.9379441291">
        <ele>25.61</ele>
        <time>2013-01-05T08:20:35Z</time>
      </trkpt>
      <trkpt lat="58.6593846884" lon="15.9381826781">
        <ele>25.61</ele>
        <time>2013-01-05T08:20:41Z</time>
      </trkpt>
      <trkpt lat="58.6592828482" lon="15.9383254219">
        <ele>25.61</ele>
        <time>2013-01-05T08:20:44Z</time>
      </trkpt>
      <trkpt lat="58.6591396015" lon="15.9384808224">
        <ele>27.05</ele>
        <time>2013-01-05T08:20:48Z</time>
      </trkpt>
      <trkpt lat="58.6590445507" lon="15.9386244044">
        <ele>25.61</ele>
        <time>2013-01-05T08:20:51Z</time>
      </trkpt>
      <trkpt lat="58.6587374378" lon="15.93902288">
        <ele>25.13</ele>
        <time>2013-01-05T08:21:00Z</time>
      </trkpt>
      <trkpt lat="58.6587005574" lon="15.9390533902">
        <ele>25.61</ele>
        <time>2013-01-05T08:21:01Z</time>
      </trkpt>
      <trkpt lat="58.6584789399" lon="15.9392600041">
        <ele>26.09</ele>
        <time>2013-01-05T08:21:07Z</time>
      </trkpt>
      <trkpt lat="58.6584118009" lon="15.9393547196">
        <ele>25.13</ele>
        <time>2013-01-05T08:21:09Z</time>
      </trkpt>
      <trkpt lat="58.658133354" lon="15.9396819491">
        <ele>26.09</ele>
        <time>2013-01-05T08:21:17Z</time>
      </trkpt>
      <trkpt lat="58.6578103993" lon="15.9400062449">
        <ele>26.09</ele>
        <time>2013-01-05T08:21:26Z</time>
      </trkpt>
      <trkpt lat="58.6574978381" lon="15.9403430298">
        <ele>25.13</ele>
        <time>2013-01-05T08:21:35Z</time>
      </trkpt>
      <trkpt lat="58.6574035417" lon="15.9404897131">
        <ele>25.61</ele>
        <time>2013-01-05T08:21:38Z</time>
      </trkpt>
      <trkpt lat="58.6570747197" lon="15.9408915415">
        <ele>26.09</ele>
        <time>2013-01-05T08:21:47Z</time>
      </trkpt>
      <trkpt lat="58.6569180619" lon="15.9410488699">
        <ele>25.61</ele>
        <time>2013-01-05T08:21:51Z</time>
      </trkpt>
      <trkpt lat="58.6566667724" lon="15.9413759317">
        <ele>25.61</ele>
        <time>2013-01-05T08:21:58Z</time>
      </trkpt>
      <trkpt lat="58.6565628368" lon="15.9415220283">
        <ele>26.09</ele>
        <time>2013-01-05T08:22:01Z</time>
      </trkpt>
      <trkpt lat="58.656379357" lon="15.9417361021">
        <ele>25.61</ele>
        <time>2013-01-05T08:22:06Z</time>
      </trkpt>
      <trkpt lat="58.6563025787" lon="15.9418283869">
        <ele>25.61</ele>
        <time>2013-01-05T08:22:08Z</time>
      </trkpt>
      <trkpt lat="58.6561496928" lon="15.9419979528">
        <ele>26.09</ele>
        <time>2013-01-05T08:22:12Z</time>
      </trkpt>
      <trkpt lat="58.6558938771" lon="15.9423049819">
        <ele>25.61</ele>
        <time>2013-01-05T08:22:19Z</time>
      </trkpt>
      <trkpt lat="58.6558217928" lon="15.9423947521">
        <ele>26.09</ele>
        <time>2013-01-05T08:22:21Z</time>
      </trkpt>
      <trkpt lat="58.6556409951" lon="15.9426307026">
        <ele>25.61</ele>
        <time>2013-01-05T08:22:26Z</time>
      </trkpt>
      <trkpt lat="58.6552684195" lon="15.943098329">
        <ele>25.61</ele>
        <time>2013-01-05T08:22:36Z</time>
      </trkpt>
      <trkpt lat="58.6550183874" lon="15.9434807114">
        <ele>25.13</ele>
        <time>2013-01-05T08:22:44Z</time>
      </trkpt>
      <trkpt lat="58.6548352428" lon="15.9439020697">
        <ele>25.13</ele>
        <time>2013-01-05T08:22:51Z</time>
      </trkpt>
      <trkpt lat="58.6547491606" lon="15.9440655168">
        <ele>25.61</ele>
        <time>2013-01-05T08:22:54Z</time>
      </trkpt>
      <trkpt lat="58.6546021421" lon="15.9443360008">
        <ele>25.61</ele>
        <time>2013-01-05T08:22:59Z</time>
      </trkpt>
      <trkpt lat="58.6545412056" lon="15.9444341529">
        <ele>25.13</ele>
        <time>2013-01-05T08:23:01Z</time>
      </trkpt>
      <trkpt lat="58.6543853022" lon="15.9446833469">
        <ele>25.13</ele>
        <time>2013-01-05T08:23:06Z</time>
      </trkpt>
      <trkpt lat="58.6543319933" lon="15.9447985142">
        <ele>25.13</ele>
        <time>2013-01-05T08:23:08Z</time>
      </trkpt>
      <trkpt lat="58.654280277" lon="15.9449201357">
        <ele>25.61</ele>
        <time>2013-01-05T08:23:10Z</time>
      </trkpt>
      <trkpt lat="58.6540862359" lon="15.9454763588">
        <ele>24.65</ele>
        <time>2013-01-05T08:23:19Z</time>
      </trkpt>
      <trkpt lat="58.6540277302" lon="15.9455847368">
        <ele>25.61</ele>
        <time>2013-01-05T08:23:21Z</time>
      </trkpt>
      <trkpt lat="58.6538704857" lon="15.9459156543">
        <ele>24.65</ele>
        <time>2013-01-05T08:23:27Z</time>
      </trkpt>
      <trkpt lat="58.6535872612" lon="15.9464963526">
        <ele>25.13</ele>
        <time>2013-01-05T08:23:37Z</time>
      </trkpt>
      <trkpt lat="58.6535659712" lon="15.9465613961">
        <ele>25.61</ele>
        <time>2013-01-05T08:23:38Z</time>
      </trkpt>
      <trkpt lat="58.6535179429" lon="15.9466912318">
        <ele>25.13</ele>
        <time>2013-01-05T08:23:40Z</time>
      </trkpt>
      <trkpt lat="58.6533285119" lon="15.9471239056">
        <ele>25.61</ele>
        <time>2013-01-05T08:23:47Z</time>
      </trkpt>
      <trkpt lat="58.6532685813" lon="15.9472360555">
        <ele>25.61</ele>
        <time>2013-01-05T08:23:49Z</time>
      </trkpt>
      <trkpt lat="58.6530628894" lon="15.9475034382">
        <ele>25.61</ele>
        <time>2013-01-05T08:23:55Z</time>
      </trkpt>
      <trkpt lat="58.6529109254" lon="15.9477650374">
        <ele>26.09</ele>
        <time>2013-01-05T08:24:00Z</time>
      </trkpt>
      <trkpt lat="58.6527438741" lon="15.9480034187">
        <ele>26.09</ele>
        <time>2013-01-05T08:24:05Z</time>
      </trkpt>
      <trkpt lat="58.6526666768" lon="15.9480541293">
        <ele>26.09</ele>
        <time>2013-01-05T08:24:07Z</time>
      </trkpt>
      <trkpt lat="58.6524158064" lon="15.9483128786">
        <ele>25.61</ele>
        <time>2013-01-05T08:24:14Z</time>
      </trkpt>
      <trkpt lat="58.6523452308" lon="15.9483929258">
        <ele>25.13</ele>
        <time>2013-01-05T08:24:16Z</time>
      </trkpt>
      <trkpt lat="58.6519625131" lon="15.9487607237">
        <ele>25.61</ele>
        <time>2013-01-05T08:24:27Z</time>
      </trkpt>
      <trkpt lat="58.651723545" lon="15.9490866121">
        <ele>25.13</ele>
        <time>2013-01-05T08:24:35Z</time>
      </trkpt>
      <trkpt lat="58.6515830643" lon="15.9490946587">
        <ele>25.13</ele>
        <time>2013-01-05T08:24:40Z</time>
      </trkpt>
      <trkpt lat="58.6515290849" lon="15.9491469618">
        <ele>25.61</ele>
        <time>2013-01-05T08:24:50Z</time>
      </trkpt>
      <trkpt lat="58.6515245587" lon="15.9491432738">
        <ele>25.13</ele>
        <time>2013-01-05T08:24:56Z</time>
      </trkpt>
      <trkpt lat="58.6515192781" lon="15.9491923079">
        <ele>26.57</ele>
        <time>2013-01-05T08:24:58Z</time>
      </trkpt>
      <trkpt lat="58.6514725909" lon="15.9494267497">
        <ele>24.65</ele>
        <time>2013-01-05T08:25:04Z</time>
      </trkpt>
      <trkpt lat="58.6514597666" lon="15.9493591078">
        <ele>25.13</ele>
        <time>2013-01-05T08:25:17Z</time>
      </trkpt>
      <trkpt lat="58.6514329445" lon="15.9494820703">
        <ele>25.13</ele>
        <time>2013-01-05T08:25:21Z</time>
      </trkpt>
      <trkpt lat="58.6513966508" lon="15.9497414902">
        <ele>25.61</ele>
        <time>2013-01-05T08:25:26Z</time>
      </trkpt>
      <trkpt lat="58.6512752809" lon="15.9500086214">
        <ele>25.61</ele>
        <time>2013-01-05T08:25:32Z</time>
      </trkpt>
      <trkpt lat="58.6510840058" lon="15.9504211787">
        <ele>24.65</ele>
        <time>2013-01-05T08:25:39Z</time>
      </trkpt>
      <trkpt lat="58.650938496" lon="15.9507939219">
        <ele>25.61</ele>
        <time>2013-01-05T08:25:44Z</time>
      </trkpt>
      <trkpt lat="58.6508493964" lon="15.9510099236">
        <ele>26.09</ele>
        <time>2013-01-05T08:25:47Z</time>
      </trkpt>
      <trkpt lat="58.6506215762" lon="15.9516886901">
        <ele>25.61</ele>
        <time>2013-01-05T08:25:56Z</time>
      </trkpt>
      <trkpt lat="58.6505543534" lon="15.9519284964">
        <ele>25.61</ele>
        <time>2013-01-05T08:25:59Z</time>
      </trkpt>
      <trkpt lat="58.6503728852" lon="15.9526635054">
        <ele>25.61</ele>
        <time>2013-01-05T08:26:08Z</time>
      </trkpt>
      <trkpt lat="58.650246067" lon="15.9530429542">
        <ele>25.61</ele>
        <time>2013-01-05T08:26:13Z</time>
      </trkpt>
      <trkpt lat="58.6501021497" lon="15.9536125045">
        <ele>25.61</ele>
        <time>2013-01-05T08:26:20Z</time>
      </trkpt>
      <trkpt lat="58.6499887425" lon="15.9541012533">
        <ele>25.13</ele>
        <time>2013-01-05T08:26:26Z</time>
      </trkpt>
      <trkpt lat="58.6499555502" lon="15.9542668797">
        <ele>26.09</ele>
        <time>2013-01-05T08:26:28Z</time>
      </trkpt>
      <trkpt lat="58.6498667859" lon="15.9546801075">
        <ele>25.61</ele>
        <time>2013-01-05T08:26:33Z</time>
      </trkpt>
      <trkpt lat="58.6498285644" lon="15.954844309">
        <ele>25.61</ele>
        <time>2013-01-05T08:26:35Z</time>
      </trkpt>
      <trkpt lat="58.6497230362" lon="15.9552484844">
        <ele>25.13</ele>
        <time>2013-01-05T08:26:40Z</time>
      </trkpt>
      <trkpt lat="58.6496821325" lon="15.9554114286">
        <ele>24.65</ele>
        <time>2013-01-05T08:26:42Z</time>
      </trkpt>
      <trkpt lat="58.649503598" lon="15.9560381435">
        <ele>25.61</ele>
        <time>2013-01-05T08:26:50Z</time>
      </trkpt>
      <trkpt lat="58.6494611017" lon="15.9561989084">
        <ele>25.61</ele>
        <time>2013-01-05T08:26:52Z</time>
      </trkpt>
      <trkpt lat="58.6494011711" lon="15.9564486053">
        <ele>25.13</ele>
        <time>2013-01-05T08:26:55Z</time>
      </trkpt>
      <trkpt lat="58.6493016779" lon="15.9568522777">
        <ele>25.13</ele>
        <time>2013-01-05T08:27:00Z</time>
      </trkpt>
      <trkpt lat="58.6492636241" lon="15.9570197482">
        <ele>25.13</ele>
        <time>2013-01-05T08:27:02Z</time>
      </trkpt>
      <trkpt lat="58.6490684934" lon="15.9577438608">
        <ele>25.13</ele>
        <time>2013-01-05T08:27:11Z</time>
      </trkpt>
      <trkpt lat="58.6489111651" lon="15.9583740123">
        <ele>25.61</ele>
        <time>2013-01-05T08:27:19Z</time>
      </trkpt>
      <trkpt lat="58.6488576885" lon="15.9586158302">
        <ele>25.13</ele>
        <time>2013-01-05T08:27:22Z</time>
      </trkpt>
      <trkpt lat="58.6487793177" lon="15.959113799">
        <ele>25.61</ele>
        <time>2013-01-05T08:27:28Z</time>
      </trkpt>
      <trkpt lat="58.6486340594" lon="15.9598518256">
        <ele>25.13</ele>
        <time>2013-01-05T08:27:37Z</time>
      </trkpt>
      <trkpt lat="58.6485608015" lon="15.9601542447">
        <ele>25.13</ele>
        <time>2013-01-05T08:27:41Z</time>
      </trkpt>
      <trkpt lat="58.6484038923" lon="15.9608566482">
        <ele>26.09</ele>
        <time>2013-01-05T08:27:50Z</time>
      </trkpt>
      <trkpt lat="58.6482934188" lon="15.961334249">
        <ele>25.61</ele>
        <time>2013-01-05T08:27:56Z</time>
      </trkpt>
      <trkpt lat="58.6480922531" lon="15.96198963">
        <ele>25.13</ele>
        <time>2013-01-05T08:28:05Z</time>
      </trkpt>
      <trkpt lat="58.6479701288" lon="15.9623222239">
        <ele>25.13</ele>
        <time>2013-01-05T08:28:10Z</time>
      </trkpt>
      <trkpt lat="58.6479246989" lon="15.962457424">
        <ele>24.65</ele>
        <time>2013-01-05T08:28:12Z</time>
      </trkpt>
      <trkpt lat="58.6477471702" lon="15.9630264714">
        <ele>26.09</ele>
        <time>2013-01-05T08:28:20Z</time>
      </trkpt>
      <trkpt lat="58.6475843098" lon="15.9636647534">
        <ele>25.13</ele>
        <time>2013-01-05T08:28:29Z</time>
      </trkpt>
      <trkpt lat="58.6475246307" lon="15.9641157836">
        <ele>25.13</ele>
        <time>2013-01-05T08:28:35Z</time>
      </trkpt>
      <trkpt lat="58.6474928632" lon="15.96435735">
        <ele>25.61</ele>
        <time>2013-01-05T08:28:38Z</time>
      </trkpt>
      <trkpt lat="58.6473735049" lon="15.9648776986">
        <ele>25.61</ele>
        <time>2013-01-05T08:28:45Z</time>
      </trkpt>
      <trkpt lat="58.6473357864" lon="15.9656806849">
        <ele>24.65</ele>
        <time>2013-01-05T08:28:55Z</time>
      </trkpt>
      <trkpt lat="58.6472747661" lon="15.9663330484">
        <ele>25.61</ele>
        <time>2013-01-05T08:29:03Z</time>
      </trkpt>
      <trkpt lat="58.6472616065" lon="15.9665764589">
        <ele>25.13</ele>
        <time>2013-01-05T08:29:06Z</time>
      </trkpt>
      <trkpt lat="58.6472487822" lon="15.9667422529">
        <ele>25.61</ele>
        <time>2013-01-05T08:29:08Z</time>
      </trkpt>
      <trkpt lat="58.6471119896" lon="15.9674705565">
        <ele>26.09</ele>
        <time>2013-01-05T08:29:17Z</time>
      </trkpt>
      <trkpt lat="58.6470824853" lon="15.9676345903">
        <ele>25.61</ele>
        <time>2013-01-05T08:29:19Z</time>
      </trkpt>
      <trkpt lat="58.6470355466" lon="15.9678625781">
        <ele>25.61</ele>
        <time>2013-01-05T08:29:22Z</time>
      </trkpt>
      <trkpt lat="58.6469245702" lon="15.9683046397">
        <ele>25.61</ele>
        <time>2013-01-05T08:29:28Z</time>
      </trkpt>
      <trkpt lat="58.6468906235" lon="15.9684634767">
        <ele>25.61</ele>
        <time>2013-01-05T08:29:30Z</time>
      </trkpt>
      <trkpt lat="58.6468076427" lon="15.9689422511">
        <ele>25.61</ele>
        <time>2013-01-05T08:29:36Z</time>
      </trkpt>
      <trkpt lat="58.6467780545" lon="15.9691007528">
        <ele>25.13</ele>
        <time>2013-01-05T08:29:38Z</time>
      </trkpt>
      <trkpt lat="58.6467153579" lon="15.9694178402">
        <ele>26.09</ele>
        <time>2013-01-05T08:29:42Z</time>
      </trkpt>
      <trkpt lat="58.6466799024" lon="15.9696666989">
        <ele>25.13</ele>
        <time>2013-01-05T08:29:45Z</time>
      </trkpt>
      <trkpt lat="58.646597676" lon="15.9701600578">
        <ele>25.13</ele>
        <time>2013-01-05T08:29:51Z</time>
      </trkpt>
      <trkpt lat="58.6465437803" lon="15.9710039478">
        <ele>25.61</ele>
        <time>2013-01-05T08:30:01Z</time>
      </trkpt>
      <trkpt lat="58.6465053074" lon="15.9716693033">
        <ele>25.13</ele>
        <time>2013-01-05T08:30:09Z</time>
      </trkpt>
      <trkpt lat="58.6464861128" lon="15.9721442219">
        <ele>25.13</ele>
        <time>2013-01-05T08:30:15Z</time>
      </trkpt>
      <trkpt lat="58.6465211492" lon="15.9729370661">
        <ele>25.61</ele>
        <time>2013-01-05T08:30:25Z</time>
      </trkpt>
      <trkpt lat="58.6465469655" lon="15.9733362962">
        <ele>25.13</ele>
        <time>2013-01-05T08:30:30Z</time>
      </trkpt>
      <trkpt lat="58.6465490609" lon="15.9734972287">
        <ele>24.65</ele>
        <time>2013-01-05T08:30:32Z</time>
      </trkpt>
      <trkpt lat="58.6465549283" lon="15.9741562977">
        <ele>25.61</ele>
        <time>2013-01-05T08:30:40Z</time>
      </trkpt>
      <trkpt lat="58.6465481389" lon="15.9743184876">
        <ele>25.13</ele>
        <time>2013-01-05T08:30:42Z</time>
      </trkpt>
      <trkpt lat="58.6465402599" lon="15.9745630715">
        <ele>25.61</ele>
        <time>2013-01-05T08:30:45Z</time>
      </trkpt>
      <trkpt lat="58.6465197243" lon="15.9752224758">
        <ele>26.09</ele>
        <time>2013-01-05T08:30:53Z</time>
      </trkpt>
      <trkpt lat="58.6465253402" lon="15.9754666407">
        <ele>25.13</ele>
        <time>2013-01-05T08:30:56Z</time>
      </trkpt>
      <trkpt lat="58.6465136055" lon="15.975959748">
        <ele>25.13</ele>
        <time>2013-01-05T08:31:02Z</time>
      </trkpt>
      <trkpt lat="58.6464654095" lon="15.9766321443">
        <ele>25.61</ele>
        <time>2013-01-05T08:31:10Z</time>
      </trkpt>
      <trkpt lat="58.6464514118" lon="15.9767993633">
        <ele>25.61</ele>
        <time>2013-01-05T08:31:12Z</time>
      </trkpt>
      <trkpt lat="58.6464115977" lon="15.9774799738">
        <ele>26.09</ele>
        <time>2013-01-05T08:31:20Z</time>
      </trkpt>
      <trkpt lat="58.6464269366" lon="15.9777393099">
        <ele>25.61</ele>
        <time>2013-01-05T08:31:23Z</time>
      </trkpt>
      <trkpt lat="58.6464532558" lon="15.9784774203">
        <ele>25.61</ele>
        <time>2013-01-05T08:31:32Z</time>
      </trkpt>
      <trkpt lat="58.6464678403" lon="15.9786396101">
        <ele>25.61</ele>
        <time>2013-01-05T08:31:34Z</time>
      </trkpt>
      <trkpt lat="58.6464788206" lon="15.978802219">
        <ele>25.13</ele>
        <time>2013-01-05T08:31:36Z</time>
      </trkpt>
      <trkpt lat="58.6464862805" lon="15.9791373275">
        <ele>25.61</ele>
        <time>2013-01-05T08:31:40Z</time>
      </trkpt>
      <trkpt lat="58.6465228256" lon="15.9799346142">
        <ele>25.13</ele>
        <time>2013-01-05T08:31:50Z</time>
      </trkpt>
      <trkpt lat="58.6465453729" lon="15.9806574695">
        <ele>25.61</ele>
        <time>2013-01-05T08:31:59Z</time>
      </trkpt>
      <trkpt lat="58.6465464626" lon="15.9809862077">
        <ele>25.61</ele>
        <time>2013-01-05T08:32:03Z</time>
      </trkpt>
      <trkpt lat="58.6465451214" lon="15.9811478946">
        <ele>25.13</ele>
        <time>2013-01-05T08:32:05Z</time>
      </trkpt>
      <trkpt lat="58.6464876216" lon="15.9817928821">
        <ele>25.61</ele>
        <time>2013-01-05T08:32:13Z</time>
      </trkpt>
      <trkpt lat="58.6464932375" lon="15.982186161">
        <ele>25.61</ele>
        <time>2013-01-05T08:32:18Z</time>
      </trkpt>
      <trkpt lat="58.6465120129" lon="15.9823496081">
        <ele>25.13</ele>
        <time>2013-01-05T08:32:20Z</time>
      </trkpt>
      <trkpt lat="58.6465325486" lon="15.9826700483">
        <ele>26.09</ele>
        <time>2013-01-05T08:32:24Z</time>
      </trkpt>
      <trkpt lat="58.6465285253" lon="15.9834920615">
        <ele>25.13</ele>
        <time>2013-01-05T08:32:34Z</time>
      </trkpt>
      <trkpt lat="58.6465424392" lon="15.9836445283">
        <ele>25.61</ele>
        <time>2013-01-05T08:32:36Z</time>
      </trkpt>
      <trkpt lat="58.6465716083" lon="15.9837969951">
        <ele>25.13</ele>
        <time>2013-01-05T08:32:38Z</time>
      </trkpt>
      <trkpt lat="58.6466213968" lon="15.9841899388">
        <ele>25.13</ele>
        <time>2013-01-05T08:32:43Z</time>
      </trkpt>
      <trkpt lat="58.6466403399" lon="15.9843481053">
        <ele>25.13</ele>
        <time>2013-01-05T08:32:45Z</time>
      </trkpt>
      <trkpt lat="58.6467476282" lon="15.9849803522">
        <ele>25.13</ele>
        <time>2013-01-05T08:32:53Z</time>
      </trkpt>
      <trkpt lat="58.6468638014" lon="15.9855435323">
        <ele>26.09</ele>
        <time>2013-01-05T08:33:00Z</time>
      </trkpt>
      <trkpt lat="58.646940412" lon="15.9862340335">
        <ele>25.61</ele>
        <time>2013-01-05T08:33:08Z</time>
      </trkpt>
      <trkpt lat="58.646969581" lon="15.9863997437">
        <ele>25.13</ele>
        <time>2013-01-05T08:33:10Z</time>
      </trkpt>
      <trkpt lat="58.6469974928" lon="15.9865719918">
        <ele>25.61</ele>
        <time>2013-01-05T08:33:12Z</time>
      </trkpt>
      <trkpt lat="58.6470596865" lon="15.9870086052">
        <ele>25.61</ele>
        <time>2013-01-05T08:33:17Z</time>
      </trkpt>
      <trkpt lat="58.647116432" lon="15.9875178896">
        <ele>25.61</ele>
        <time>2013-01-05T08:33:23Z</time>
      </trkpt>
      <trkpt lat="58.6471845768" lon="15.9881016053">
        <ele>25.61</ele>
        <time>2013-01-05T08:33:30Z</time>
      </trkpt>
      <trkpt lat="58.6472148355" lon="15.9882591013">
        <ele>25.61</ele>
        <time>2013-01-05T08:33:32Z</time>
      </trkpt>
      <trkpt lat="58.6473156698" lon="15.9891911689">
        <ele>25.13</ele>
        <time>2013-01-05T08:33:43Z</time>
      </trkpt>
      <trkpt lat="58.6473617703" lon="15.9899541736">
        <ele>25.13</ele>
        <time>2013-01-05T08:33:52Z</time>
      </trkpt>
      <trkpt lat="58.6473692302" lon="15.9900408424">
        <ele>25.61</ele>
        <time>2013-01-05T08:33:53Z</time>
      </trkpt>
      <trkpt lat="58.6473895144" lon="15.9902091511">
        <ele>25.61</ele>
        <time>2013-01-05T08:33:55Z</time>
      </trkpt>
      <trkpt lat="58.6474611796" lon="15.9906212054">
        <ele>25.13</ele>
        <time>2013-01-05T08:34:00Z</time>
      </trkpt>
      <trkpt lat="58.6475791968" lon="15.9913692903">
        <ele>25.13</ele>
        <time>2013-01-05T08:34:09Z</time>
      </trkpt>
      <trkpt lat="58.6476796959" lon="15.992031293">
        <ele>25.13</ele>
        <time>2013-01-05T08:34:17Z</time>
      </trkpt>
      <trkpt lat="58.6477202643" lon="15.9922788944">
        <ele>26.09</ele>
        <time>2013-01-05T08:34:20Z</time>
      </trkpt>
      <trkpt lat="58.6477635987" lon="15.9925182816">
        <ele>25.61</ele>
        <time>2013-01-05T08:34:23Z</time>
      </trkpt>
      <trkpt lat="58.6479358468" lon="15.9931342676">
        <ele>25.61</ele>
        <time>2013-01-05T08:34:31Z</time>
      </trkpt>
      <trkpt lat="58.6481550336" lon="15.9938289598">
        <ele>25.61</ele>
        <time>2013-01-05T08:34:40Z</time>
      </trkpt>
      <trkpt lat="58.6482332367" lon="15.9940555226">
        <ele>25.61</ele>
        <time>2013-01-05T08:34:43Z</time>
      </trkpt>
      <trkpt lat="58.6482811812" lon="15.9942098334">
        <ele>25.61</ele>
        <time>2013-01-05T08:34:45Z</time>
      </trkpt>
      <trkpt lat="58.6484742165" lon="15.9948523063">
        <ele>24.65</ele>
        <time>2013-01-05T08:34:53Z</time>
      </trkpt>
      <trkpt lat="58.6486561876" lon="15.9953189269">
        <ele>26.09</ele>
        <time>2013-01-05T08:34:59Z</time>
      </trkpt>
      <trkpt lat="58.648737995" lon="15.9955473337">
        <ele>25.13</ele>
        <time>2013-01-05T08:35:02Z</time>
      </trkpt>
      <trkpt lat="58.648943603" lon="15.9962095879">
        <ele>26.09</ele>
        <time>2013-01-05T08:35:10Z</time>
      </trkpt>
      <trkpt lat="58.6491482053" lon="15.9968338721">
        <ele>26.09</ele>
        <time>2013-01-05T08:35:18Z</time>
      </trkpt>
      <trkpt lat="58.6492548231" lon="15.9971228801">
        <ele>25.61</ele>
        <time>2013-01-05T08:35:22Z</time>
      </trkpt>
      <trkpt lat="58.6495106388" lon="15.9976397082">
        <ele>25.61</ele>
        <time>2013-01-05T08:35:30Z</time>
      </trkpt>
      <trkpt lat="58.6496205255" lon="15.9977476671">
        <ele>26.09</ele>
        <time>2013-01-05T08:35:33Z</time>
      </trkpt>
      <trkpt lat="58.6497844756" lon="15.9979473241">
        <ele>25.61</ele>
        <time>2013-01-05T08:35:38Z</time>
      </trkpt>
      <trkpt lat="58.6500782613" lon="15.9983937442">
        <ele>26.09</ele>
        <time>2013-01-05T08:35:47Z</time>
      </trkpt>
      <trkpt lat="58.6501125433" lon="15.9984478075">
        <ele>26.09</ele>
        <time>2013-01-05T08:35:48Z</time>
      </trkpt>
      <trkpt lat="58.6503953487" lon="15.9989523981">
        <ele>26.09</ele>
        <time>2013-01-05T08:35:57Z</time>
      </trkpt>
      <trkpt lat="58.6506687663" lon="15.9990345407">
        <ele>25.61</ele>
        <time>2013-01-05T08:36:05Z</time>
      </trkpt>
      <trkpt lat="58.650741186" lon="15.9991489537">
        <ele>22.73</ele>
        <time>2013-01-05T08:36:14Z</time>
      </trkpt>
      <trkpt lat="58.6508348119" lon="15.9994661249">
        <ele>25.61</ele>
        <time>2013-01-05T08:36:22Z</time>
      </trkpt>
      <trkpt lat="58.6509866919" lon="15.9997798596">
        <ele>24.65</ele>
        <time>2013-01-05T08:36:27Z</time>
      </trkpt>
      <trkpt lat="58.6512096506" lon="16.0001380183">
        <ele>26.57</ele>
        <time>2013-01-05T08:36:32Z</time>
      </trkpt>
      <trkpt lat="58.651303947" lon="16.0002764873">
        <ele>25.61</ele>
        <time>2013-01-05T08:36:34Z</time>
      </trkpt>
      <trkpt lat="58.6516662128" lon="16.0008691717">
        <ele>26.09</ele>
        <time>2013-01-05T08:36:42Z</time>
      </trkpt>
      <trkpt lat="58.6517621018" lon="16.0009962413">
        <ele>25.61</ele>
        <time>2013-01-05T08:36:44Z</time>
      </trkpt>
      <trkpt lat="58.6520763393" lon="16.0014552344">
        <ele>26.09</ele>
        <time>2013-01-05T08:36:51Z</time>
      </trkpt>
      <trkpt lat="58.6525016371" lon="16.0020379443">
        <ele>26.09</ele>
        <time>2013-01-05T08:37:00Z</time>
      </trkpt>
      <trkpt lat="58.6526362505" lon="16.0022296384">
        <ele>25.61</ele>
        <time>2013-01-05T08:37:03Z</time>
      </trkpt>
      <trkpt lat="58.6528487317" lon="16.0025376733">
        <ele>26.09</ele>
        <time>2013-01-05T08:37:08Z</time>
      </trkpt>
      <trkpt lat="58.653174201" lon="16.0029752087">
        <ele>25.13</ele>
        <time>2013-01-05T08:37:16Z</time>
      </trkpt>
      <trkpt lat="58.6532559246" lon="16.003083922">
        <ele>25.61</ele>
        <time>2013-01-05T08:37:18Z</time>
      </trkpt>
      <trkpt lat="58.6535810586" lon="16.0035046097">
        <ele>26.09</ele>
        <time>2013-01-05T08:37:26Z</time>
      </trkpt>
      <trkpt lat="58.6536589265" lon="16.0036141612">
        <ele>26.09</ele>
        <time>2013-01-05T08:37:28Z</time>
      </trkpt>
      <trkpt lat="58.6537394766" lon="16.0037219524">
        <ele>26.09</ele>
        <time>2013-01-05T08:37:30Z</time>
      </trkpt>
      <trkpt lat="58.6541129742" lon="16.0041694622">
        <ele>25.61</ele>
        <time>2013-01-05T08:37:39Z</time>
      </trkpt>
      <trkpt lat="58.6544107832" lon="16.0043936782">
        <ele>25.61</ele>
        <time>2013-01-05T08:37:46Z</time>
      </trkpt>
      <trkpt lat="58.6546111107" lon="16.0045636632">
        <ele>25.61</ele>
        <time>2013-01-05T08:37:51Z</time>
      </trkpt>
      <trkpt lat="58.6547769886" lon="16.0046459734">
        <ele>25.61</ele>
        <time>2013-01-05T08:37:55Z</time>
      </trkpt>
      <trkpt lat="58.6551466305" lon="16.0045481566">
        <ele>26.09</ele>
        <time>2013-01-05T08:38:04Z</time>
      </trkpt>
      <trkpt lat="58.6553922202" lon="16.0048270226">
        <ele>26.09</ele>
        <time>2013-01-05T08:38:12Z</time>
      </trkpt>
      <trkpt lat="58.6555198766" lon="16.0052945651">
        <ele>25.61</ele>
        <time>2013-01-05T08:38:19Z</time>
      </trkpt>
      <trkpt lat="58.6556440964" lon="16.0056418274">
        <ele>25.61</ele>
        <time>2013-01-05T08:38:26Z</time>
      </trkpt>
      <trkpt lat="58.6556430068" lon="16.0055947211">
        <ele>25.61</ele>
        <time>2013-01-05T08:38:38Z</time>
      </trkpt>
      <trkpt lat="58.6556534003" lon="16.0055783764">
        <ele>25.13</ele>
        <time>2013-01-05T08:38:53Z</time>
      </trkpt>
      <trkpt lat="58.6556480359" lon="16.0055816453">
        <ele>22.25</ele>
        <time>2013-01-05T08:38:58Z</time>
      </trkpt>
      <trkpt lat="58.6556481197" lon="16.0055803042">
        <ele>25.61</ele>
        <time>2013-01-05T08:38:59Z</time>
      </trkpt>
      <trkpt lat="58.6556515563" lon="16.0055684019">
        <ele>25.61</ele>
        <time>2013-01-05T08:39:07Z</time>
      </trkpt>
      <trkpt lat="58.6556574237" lon="16.0055737663">
        <ele>22.25</ele>
        <time>2013-01-05T08:39:17Z</time>
      </trkpt>
      <trkpt lat="58.6556550767" lon="16.005574353">
        <ele>25.61</ele>
        <time>2013-01-05T08:39:18Z</time>
      </trkpt>
      <trkpt lat="58.6556575913" lon="16.0055937152">
        <ele>24.17</ele>
        <time>2013-01-05T08:39:35Z</time>
      </trkpt>
      <trkpt lat="58.6556708347" lon="16.0056298412">
        <ele>25.13</ele>
        <time>2013-01-05T08:39:55Z</time>
      </trkpt>
      <trkpt lat="58.6556179449" lon="16.0056087188">
        <ele>25.61</ele>
        <time>2013-01-05T08:40:08Z</time>
      </trkpt>
    </trkseg>
  </trk>
</gpx>